Time,TemperatureF,DewpointF,PressureIn,WindDirection,WindDirectionDegrees,WindSpeedMPH,WindSpeedGustMPH,Humidity,HourlyPrecipIn,Conditions,Clouds,dailyrainin,SoftwareType,DateUTC
2013-03-06 00:00:00,26.4,25.2,29.96,ENE,76,2.0,11.0,95,0.00,,,0.01,Wunderground v.1.15,2013-03-06 05:00:00,
2013-03-06 00:04:00,26.4,25.2,29.96,NE,45,4.0,5.0,95,0.00,,,0.01,Wunderground v.1.15,2013-03-06 05:04:00,
2013-03-06 00:05:00,26.3,25.1,29.96,East,94,2.0,5.0,95,0.00,,,0.01,Wunderground v.1.15,2013-03-06 05:05:00,
2013-03-06 00:06:00,26.4,25.2,29.96,SE,144,0.0,5.0,95,0.00,,,0.01,Wunderground v.1.15,2013-03-06 05:06:00,
2013-03-06 00:07:00,26.4,24.9,29.96,East,87,4.0,5.0,94,0.00,,,0.01,Wunderground v.1.15,2013-03-06 05:07:00,
2013-03-06 00:11:00,26.4,24.9,29.96,ENE,61,0.0,4.0,94,0.00,,,0.01,Wunderground v.1.15,2013-03-06 05:11:00,
2013-03-06 00:13:00,26.3,24.8,29.96,NE,40,2.0,4.0,94,0.00,,,0.01,Wunderground v.1.15,2013-03-06 05:13:00,
2013-03-06 00:16:00,26.4,24.9,29.96,ESE,105,0.0,4.0,94,0.00,,,0.00,Wunderground v.1.15,2013-03-06 05:16:00,
2013-03-06 00:20:00,26.4,24.9,29.96,East,96,1.0,2.0,94,0.00,,,0.00,Wunderground v.1.15,2013-03-06 05:20:00,
2013-03-06 00:21:00,26.4,24.9,29.96,East,97,0.0,2.0,94,0.00,,,0.00,Wunderground v.1.15,2013-03-06 05:21:00,
2013-03-06 00:23:00,26.4,24.9,29.96,ENE,74,5.0,5.0,94,0.00,,,0.00,Wunderground v.1.15,2013-03-06 05:23:00,
2013-03-06 00:26:00,26.4,24.9,29.96,East,101,3.0,5.0,94,0.00,,,0.00,Wunderground v.1.15,2013-03-06 05:26:00,
2013-03-06 00:29:00,26.4,24.9,29.96,East,87,2.0,5.0,94,0.00,,,0.00,Wunderground v.1.15,2013-03-06 05:29:00,
2013-03-06 00:32:00,26.4,24.9,29.96,NNE,26,0.0,5.0,94,0.00,,,0.00,Wunderground v.1.15,2013-03-06 05:32:00,
2013-03-06 00:34:00,26.4,24.9,29.96,East,92,1.0,5.0,94,0.00,,,0.00,Wunderground v.1.15,2013-03-06 05:34:00,
2013-03-06 00:36:00,26.4,24.9,29.97,SSE,157,2.0,5.0,94,0.00,,,0.00,Wunderground v.1.15,2013-03-06 05:36:00,
2013-03-06 00:38:00,26.4,24.9,29.96,East,82,7.0,7.0,94,0.00,,,0.00,Wunderground v.1.15,2013-03-06 05:38:00,
2013-03-06 00:39:00,26.4,24.9,29.97,East,90,2.0,7.0,94,0.00,,,0.00,Wunderground v.1.15,2013-03-06 05:39:00,
2013-03-06 00:41:00,26.4,24.7,29.97,NE,49,2.0,2.0,93,0.00,,,0.00,Wunderground v.1.15,2013-03-06 05:41:00,
2013-03-06 00:43:00,26.5,24.8,29.97,NNE,26,6.0,6.0,93,0.00,,,0.00,Wunderground v.1.15,2013-03-06 05:43:00,
2013-03-06 00:44:00,26.5,25.0,29.97,ENE,69,2.0,6.0,94,0.00,,,0.00,Wunderground v.1.15,2013-03-06 05:44:00,
2013-03-06 00:46:00,26.5,24.8,29.97,ENE,74,1.0,6.0,93,0.00,,,0.00,Wunderground v.1.15,2013-03-06 05:46:00,
2013-03-06 00:47:00,26.5,24.8,29.97,NNE,30,1.0,6.0,93,0.00,,,0.00,Wunderground v.1.15,2013-03-06 05:47:00,
2013-03-06 00:52:00,26.5,24.8,29.97,NE,49,0.0,3.0,93,0.00,,,0.00,Wunderground v.1.15,2013-03-06 05:52:00,
2013-03-06 00:55:00,26.6,24.8,29.97,ENE,65,0.0,3.0,93,0.00,,,0.00,Wunderground v.1.15,2013-03-06 05:55:00,
2013-03-06 00:57:00,26.6,24.8,29.97,NE,34,0.0,3.0,93,0.00,,,0.00,Wunderground v.1.15,2013-03-06 05:57:00,
2013-03-06 01:01:00,26.6,25.1,29.98,NNE,28,7.0,7.0,94,0.00,,,0.00,Wunderground v.1.15,2013-03-06 06:01:00,
2013-03-06 01:03:00,26.7,25.2,29.98,ENE,67,4.0,7.0,94,0.00,,,0.00,Wunderground v.1.15,2013-03-06 06:03:00,
2013-03-06 01:06:00,26.7,25.2,29.98,East,96,1.0,7.0,94,0.00,,,0.00,Wunderground v.1.15,2013-03-06 06:06:00,
2013-03-06 01:07:00,26.7,25.2,29.98,ENE,62,4.0,7.0,94,0.00,,,0.00,Wunderground v.1.15,2013-03-06 06:07:00,
2013-03-06 01:10:00,26.7,25.2,29.98,ENE,77,3.0,3.0,94,0.00,,,0.00,Wunderground v.1.15,2013-03-06 06:10:00,
2013-03-06 01:12:00,26.7,25.2,29.98,ENE,75,2.0,3.0,94,0.00,,,0.00,Wunderground v.1.15,2013-03-06 06:12:00,
2013-03-06 01:13:00,26.6,25.1,29.98,ENE,65,0.0,3.0,94,0.00,,,0.00,Wunderground v.1.15,2013-03-06 06:13:00,
2013-03-06 01:15:00,26.6,25.1,29.98,East,89,3.0,3.0,94,0.00,,,0.00,Wunderground v.1.15,2013-03-06 06:15:00,
2013-03-06 01:18:00,26.6,25.1,29.99,NE,46,14.0,14.0,94,0.00,,,0.00,Wunderground v.1.15,2013-03-06 06:18:00,
2013-03-06 01:20:00,26.6,25.1,29.99,SSE,157,4.0,4.0,94,0.00,,,0.00,Wunderground v.1.15,2013-03-06 06:20:00,
2013-03-06 01:21:00,26.6,25.1,29.99,NE,51,0.0,4.0,94,0.00,,,0.00,Wunderground v.1.15,2013-03-06 06:21:00,
2013-03-06 01:24:00,26.6,25.1,29.99,SE,138,0.0,6.0,94,0.00,,,0.00,Wunderground v.1.15,2013-03-06 06:24:00,
2013-03-06 01:27:00,26.6,25.1,29.99,ENE,65,1.0,6.0,94,0.00,,,0.00,Wunderground v.1.15,2013-03-06 06:27:00,
2013-03-06 01:29:00,26.5,25.0,29.99,ENE,59,6.0,6.0,94,0.00,,,0.00,Wunderground v.1.15,2013-03-06 06:29:00,
2013-03-06 01:31:00,26.5,25.0,29.99,NE,41,5.0,5.0,94,0.00,,,0.00,Wunderground v.1.15,2013-03-06 06:31:00,
2013-03-06 01:32:00,26.5,25.0,29.99,ENE,71,2.0,5.0,94,0.00,,,0.00,Wunderground v.1.15,2013-03-06 06:32:00,
2013-03-06 01:33:00,26.5,25.0,29.99,NE,44,4.0,5.0,94,0.00,,,0.00,Wunderground v.1.15,2013-03-06 06:33:00,
2013-03-06 01:34:00,26.5,25.0,29.99,ENE,76,5.0,5.0,94,0.00,,,0.00,Wunderground v.1.15,2013-03-06 06:34:00,
2013-03-06 01:36:00,26.6,25.1,29.99,ENE,68,2.0,7.0,94,0.00,,,0.00,Wunderground v.1.15,2013-03-06 06:36:00,
2013-03-06 01:39:00,26.6,25.1,29.99,NE,34,0.0,7.0,94,0.00,,,0.00,Wunderground v.1.15,2013-03-06 06:39:00,
2013-03-06 01:42:00,26.6,24.8,29.99,ENE,57,1.0,3.0,93,0.00,,,0.00,Wunderground v.1.15,2013-03-06 06:42:00,
2013-03-06 01:44:00,26.5,24.8,29.99,NE,53,2.0,3.0,93,0.00,,,0.00,Wunderground v.1.15,2013-03-06 06:44:00,
2013-03-06 01:45:00,26.5,25.0,29.99,SSE,167,2.0,3.0,94,0.00,,,0.00,Wunderground v.1.15,2013-03-06 06:45:00,
2013-03-06 01:48:00,26.6,24.8,29.99,ESE,108,3.0,4.0,93,0.00,,,0.00,Wunderground v.1.15,2013-03-06 06:48:00,
2013-03-06 01:50:00,26.6,24.8,29.99,East,101,0.0,2.0,93,0.00,,,0.00,Wunderground v.1.15,2013-03-06 06:50:00,
2013-03-06 01:53:00,26.6,24.8,29.99,ESE,105,2.0,3.0,93,0.00,,,0.00,Wunderground v.1.15,2013-03-06 06:53:00,
2013-03-06 01:54:00,26.6,24.8,29.99,East,81,0.0,3.0,93,0.00,,,0.00,Wunderground v.1.15,2013-03-06 06:54:00,
2013-03-06 01:55:00,26.6,24.8,29.99,ESE,108,2.0,3.0,93,0.00,,,0.00,Wunderground v.1.15,2013-03-06 06:55:00,
2013-03-06 01:57:00,26.6,24.8,29.99,ESE,106,1.0,3.0,93,0.00,,,0.00,Wunderground v.1.15,2013-03-06 06:57:00,
2013-03-06 01:58:00,26.6,24.8,29.99,ENE,65,6.0,6.0,93,0.00,,,0.00,Wunderground v.1.15,2013-03-06 06:58:00,
2013-03-06 02:00:00,26.6,24.8,29.99,NE,48,5.0,5.0,93,0.00,,,0.00,Wunderground v.1.15,2013-03-06 07:00:00,
2013-03-06 02:01:00,26.6,24.8,29.99,SSE,157,0.0,5.0,93,0.00,,,0.00,Wunderground v.1.15,2013-03-06 07:01:00,
2013-03-06 02:02:00,26.6,24.8,29.99,SSE,156,1.0,5.0,93,0.00,,,0.00,Wunderground v.1.15,2013-03-06 07:02:00,
2013-03-06 02:03:00,26.6,24.8,30.00,ENE,74,3.0,5.0,93,0.00,,,0.00,Wunderground v.1.15,2013-03-06 07:03:00,
2013-03-06 02:05:00,26.6,24.8,30.00,ENE,61,8.0,9.0,93,0.00,,,0.00,Wunderground v.1.15,2013-03-06 07:05:00,
2013-03-06 02:06:00,26.6,24.8,30.00,East,87,1.0,9.0,93,0.00,,,0.00,Wunderground v.1.15,2013-03-06 07:06:00,
2013-03-06 02:08:00,26.6,24.8,29.99,East,94,1.0,9.0,93,0.00,,,0.00,Wunderground v.1.15,2013-03-06 07:08:00,
2013-03-06 02:10:00,26.6,24.8,30.00,ENE,69,3.0,5.0,93,0.00,,,0.00,Wunderground v.1.15,2013-03-06 07:10:00,
2013-03-06 02:12:00,26.6,24.8,30.00,ENE,57,2.0,5.0,93,0.00,,,0.00,Wunderground v.1.15,2013-03-06 07:12:00,
2013-03-06 02:13:00,26.6,24.8,30.00,East,94,1.0,12.0,93,0.00,,,0.00,Wunderground v.1.15,2013-03-06 07:13:00,
2013-03-06 02:16:00,26.5,24.8,30.00,SSE,153,2.0,12.0,93,0.00,,,0.00,Wunderground v.1.15,2013-03-06 07:16:00,
2013-03-06 02:17:00,26.6,24.8,30.00,East,83,1.0,12.0,93,0.00,,,0.00,Wunderground v.1.15,2013-03-06 07:17:00,
2013-03-06 02:18:00,26.5,24.8,30.00,East,83,1.0,12.0,93,0.00,,,0.00,Wunderground v.1.15,2013-03-06 07:18:00,
2013-03-06 02:19:00,26.5,24.8,30.00,East,95,1.0,12.0,93,0.00,,,0.00,Wunderground v.1.15,2013-03-06 07:19:00,
2013-03-06 02:21:00,26.5,24.8,30.00,East,97,0.0,2.0,93,0.00,,,0.00,Wunderground v.1.15,2013-03-06 07:21:00,
2013-03-06 02:22:00,26.5,24.5,30.00,SSE,150,6.0,7.0,92,0.00,,,0.00,Wunderground v.1.15,2013-03-06 07:22:00,
2013-03-06 02:23:00,26.5,24.5,30.00,SE,131,2.0,7.0,92,0.00,,,0.00,Wunderground v.1.15,2013-03-06 07:23:00,
2013-03-06 02:24:00,26.5,24.5,30.00,SE,133,1.0,7.0,92,0.00,,,0.00,Wunderground v.1.15,2013-03-06 07:24:00,
2013-03-06 02:26:00,26.5,24.5,30.00,ESE,109,0.0,7.0,92,0.00,,,0.00,Wunderground v.1.15,2013-03-06 07:26:00,
2013-03-06 02:28:00,26.5,24.5,30.00,South,175,3.0,7.0,92,0.00,,,0.00,Wunderground v.1.15,2013-03-06 07:28:00,
2013-03-06 02:29:00,26.5,24.5,30.01,ESE,102,2.0,7.0,92,0.00,,,0.00,Wunderground v.1.15,2013-03-06 07:29:00,
2013-03-06 02:31:00,26.4,24.4,30.01,East,83,2.0,4.0,92,0.00,,,0.00,Wunderground v.1.15,2013-03-06 07:31:00,
2013-03-06 02:33:00,26.4,24.4,30.01,ENE,77,3.0,4.0,92,0.00,,,0.00,Wunderground v.1.15,2013-03-06 07:33:00,
2013-03-06 02:34:00,26.4,24.4,30.01,ENE,76,0.0,4.0,92,0.00,,,0.00,Wunderground v.1.15,2013-03-06 07:34:00,
2013-03-06 02:36:00,26.4,24.4,30.01,ENE,71,0.0,4.0,92,0.00,,,0.00,Wunderground v.1.15,2013-03-06 07:36:00,
2013-03-06 02:39:00,26.4,24.4,30.01,ENE,58,0.0,9.0,92,0.00,,,0.00,Wunderground v.1.15,2013-03-06 07:39:00,
2013-03-06 02:42:00,26.5,24.5,30.01,East,85,4.0,8.0,92,0.00,,,0.00,Wunderground v.1.15,2013-03-06 07:42:00,
2013-03-06 02:44:00,26.5,24.5,30.01,NNE,21,2.0,8.0,92,0.00,,,0.00,Wunderground v.1.15,2013-03-06 07:44:00,
2013-03-06 02:45:00,26.5,24.5,30.01,NNE,32,0.0,8.0,92,0.00,,,0.00,Wunderground v.1.15,2013-03-06 07:45:00,
2013-03-06 02:47:00,26.5,24.5,30.01,NNE,24,4.0,8.0,92,0.00,,,0.00,Wunderground v.1.15,2013-03-06 07:47:00,
2013-03-06 02:49:00,26.6,24.6,30.01,SSW,196,2.0,8.0,92,0.00,,,0.00,Wunderground v.1.15,2013-03-06 07:49:00,
2013-03-06 02:50:00,26.6,24.6,30.01,NE,53,2.0,2.0,92,0.00,,,0.00,Wunderground v.1.15,2013-03-06 07:50:00,
2013-03-06 02:53:00,26.7,24.7,30.01,ENE,74,1.0,12.0,92,0.00,,,0.00,Wunderground v.1.15,2013-03-06 07:53:00,
2013-03-06 02:54:00,26.8,24.8,30.01,NE,40,6.0,12.0,92,0.00,,,0.00,Wunderground v.1.15,2013-03-06 07:54:00,
2013-03-06 02:55:00,26.8,24.8,30.01,East,88,1.0,12.0,92,0.00,,,0.00,Wunderground v.1.15,2013-03-06 07:55:00,
2013-03-06 02:58:00,26.9,24.9,30.01,NNW,348,3.0,12.0,92,0.00,,,0.00,Wunderground v.1.15,2013-03-06 07:58:00,
2013-03-06 02:59:00,26.9,24.9,30.01,NE,51,4.0,12.0,92,0.00,,,0.00,Wunderground v.1.15,2013-03-06 07:59:00,
2013-03-06 03:00:00,27.0,25.0,30.01,ENE,76,3.0,4.0,92,0.00,,,0.00,Wunderground v.1.15,2013-03-06 08:00:00,
2013-03-06 03:03:00,27.1,25.1,30.02,NE,36,7.0,13.0,92,0.00,,,0.00,Wunderground v.1.15,2013-03-06 08:03:00,
2013-03-06 03:05:00,27.2,25.2,30.02,NE,34,4.0,13.0,92,0.00,,,0.00,Wunderground v.1.15,2013-03-06 08:05:00,
2013-03-06 03:08:00,27.3,25.3,30.02,ENE,62,4.0,13.0,92,0.00,,,0.00,Wunderground v.1.15,2013-03-06 08:08:00,
2013-03-06 03:10:00,27.4,25.4,30.02,NE,50,6.0,13.0,92,0.00,,,0.00,Wunderground v.1.15,2013-03-06 08:10:00,
2013-03-06 03:13:00,27.4,25.1,30.02,NE,42,4.0,15.0,91,0.00,,,0.00,Wunderground v.1.15,2013-03-06 08:13:00,
2013-03-06 03:15:00,27.4,25.1,30.02,NNE,26,3.0,15.0,91,0.00,,,0.00,Wunderground v.1.15,2013-03-06 08:15:00,
2013-03-06 03:16:00,27.5,25.2,30.02,NNE,26,2.0,15.0,91,0.00,,,0.00,Wunderground v.1.15,2013-03-06 08:16:00,
2013-03-06 03:18:00,27.5,25.2,30.02,North,355,12.0,16.0,91,0.00,,,0.00,Wunderground v.1.15,2013-03-06 08:18:00,
2013-03-06 03:21:00,27.6,25.3,30.02,NNE,18,5.0,11.0,91,0.00,,,0.00,Wunderground v.1.15,2013-03-06 08:21:00,
2013-03-06 03:23:00,27.7,25.4,30.02,East,86,1.0,15.0,91,0.00,,,0.00,Wunderground v.1.15,2013-03-06 08:23:00,
2013-03-06 03:26:00,27.6,25.3,30.02,East,91,3.0,15.0,91,0.00,,,0.00,Wunderground v.1.15,2013-03-06 08:26:00,
2013-03-06 03:29:00,27.6,25.3,30.02,NE,54,3.0,15.0,91,0.00,,,0.00,Wunderground v.1.15,2013-03-06 08:29:00,
2013-03-06 03:31:00,27.6,25.3,30.02,NE,34,6.0,14.0,91,0.00,,,0.00,Wunderground v.1.15,2013-03-06 08:31:00,
2013-03-06 03:34:00,27.7,25.4,30.03,NE,46,10.0,18.0,91,0.00,,,0.00,Wunderground v.1.15,2013-03-06 08:34:00,
2013-03-06 03:36:00,27.8,25.5,30.03,NE,34,5.0,18.0,91,0.00,,,0.00,Wunderground v.1.15,2013-03-06 08:36:00,
2013-03-06 03:37:00,27.8,25.5,30.03,NNE,12,2.0,18.0,91,0.00,,,0.00,Wunderground v.1.15,2013-03-06 08:37:00,
2013-03-06 03:39:00,27.7,25.4,30.03,NE,53,6.0,18.0,91,0.00,,,0.00,Wunderground v.1.15,2013-03-06 08:39:00,
2013-03-06 03:41:00,27.8,25.5,30.03,ENE,61,1.0,10.0,91,0.00,,,0.00,Wunderground v.1.15,2013-03-06 08:41:00,
2013-03-06 03:42:00,27.7,25.4,30.03,NE,40,5.0,10.0,91,0.00,,,0.00,Wunderground v.1.15,2013-03-06 08:42:00,
2013-03-06 03:44:00,27.8,25.5,30.03,ENE,69,1.0,15.0,91,0.00,,,0.00,Wunderground v.1.15,2013-03-06 08:44:00,
2013-03-06 03:46:00,27.8,25.5,30.03,NNE,19,9.0,15.0,91,0.00,,,0.00,Wunderground v.1.15,2013-03-06 08:46:00,
2013-03-06 03:47:00,27.8,25.5,30.03,ESE,119,3.0,15.0,91,0.00,,,0.00,Wunderground v.1.15,2013-03-06 08:47:00,
2013-03-06 03:50:00,27.8,25.5,30.03,NE,51,1.0,5.0,91,0.00,,,0.00,Wunderground v.1.15,2013-03-06 08:50:00,
2013-03-06 03:52:00,27.8,25.5,30.03,ENE,61,1.0,10.0,91,0.00,,,0.00,Wunderground v.1.15,2013-03-06 08:52:00,
2013-03-06 03:55:00,27.8,25.5,30.03,NE,52,4.0,10.0,91,0.00,,,0.00,Wunderground v.1.15,2013-03-06 08:55:00,
2013-03-06 03:58:00,27.8,25.5,30.03,ENE,57,4.0,10.0,91,0.00,,,0.00,Wunderground v.1.15,2013-03-06 08:58:00,
2013-03-06 04:00:00,27.8,25.5,30.03,North,9,7.0,7.0,91,0.00,,,0.00,Wunderground v.1.15,2013-03-06 09:00:00,
2013-03-06 04:03:00,27.9,25.6,30.03,North,11,2.0,16.0,91,0.00,,,0.00,Wunderground v.1.15,2013-03-06 09:03:00,
2013-03-06 04:05:00,28.0,25.7,30.03,ENE,75,2.0,16.0,91,0.00,,,0.00,Wunderground v.1.15,2013-03-06 09:05:00,
2013-03-06 04:08:00,28.1,25.8,30.03,ENE,60,3.0,16.0,91,0.00,,,0.00,Wunderground v.1.15,2013-03-06 09:08:00,
2013-03-06 04:10:00,28.1,25.5,30.03,South,171,1.0,6.0,90,0.00,,,0.00,Wunderground v.1.15,2013-03-06 09:10:00,
2013-03-06 04:13:00,28.1,25.8,30.03,NNE,28,4.0,6.0,91,0.00,,,0.00,Wunderground v.1.15,2013-03-06 09:13:00,
2013-03-06 04:14:00,28.1,25.5,30.03,East,85,1.0,6.0,90,0.00,,,0.00,Wunderground v.1.15,2013-03-06 09:14:00,
2013-03-06 04:16:00,28.1,25.5,30.03,ENE,68,4.0,12.0,90,0.00,,,0.00,Wunderground v.1.15,2013-03-06 09:16:00,
2013-03-06 04:18:00,28.0,25.4,30.03,NE,47,5.0,12.0,90,0.00,,,0.00,Wunderground v.1.15,2013-03-06 09:18:00,
2013-03-06 04:19:00,28.1,25.5,30.03,ENE,75,3.0,12.0,90,0.00,,,0.00,Wunderground v.1.15,2013-03-06 09:19:00,
2013-03-06 04:22:00,28.1,25.5,30.04,ENE,78,3.0,9.0,90,0.00,,,0.00,Wunderground v.1.15,2013-03-06 09:22:00,
2013-03-06 04:23:00,28.1,25.5,30.04,NNE,29,8.0,11.0,90,0.00,,,0.00,Wunderground v.1.15,2013-03-06 09:23:00,
2013-03-06 04:24:00,28.1,25.5,30.04,North,9,9.0,11.0,90,0.00,,,0.00,Wunderground v.1.15,2013-03-06 09:24:00,
2013-03-06 04:25:00,28.1,25.8,30.04,North,360,4.0,11.0,91,0.00,,,0.00,Wunderground v.1.15,2013-03-06 09:25:00,
2013-03-06 04:27:00,28.2,25.9,30.04,NE,48,0.0,11.0,91,0.00,,,0.00,Wunderground v.1.15,2013-03-06 09:27:00,
2013-03-06 04:28:00,28.2,25.9,30.04,ENE,68,9.0,11.0,91,0.00,,,0.00,Wunderground v.1.15,2013-03-06 09:28:00,
2013-03-06 04:29:00,28.2,25.9,30.04,ESE,117,3.0,11.0,91,0.00,,,0.00,Wunderground v.1.15,2013-03-06 09:29:00,
2013-03-06 04:30:00,28.2,25.6,30.04,NE,52,0.0,4.0,90,0.00,,,0.00,Wunderground v.1.15,2013-03-06 09:30:00,
2013-03-06 04:33:00,28.3,26.0,30.04,NE,51,5.0,13.0,91,0.00,,,0.00,Wunderground v.1.15,2013-03-06 09:33:00,
2013-03-06 04:35:00,28.3,26.0,30.04,ENE,65,4.0,13.0,91,0.00,,,0.00,Wunderground v.1.15,2013-03-06 09:35:00,
2013-03-06 04:39:00,28.4,26.1,30.05,NE,40,7.0,13.0,91,0.00,,,0.00,Wunderground v.1.15,2013-03-06 09:39:00,
2013-03-06 04:41:00,28.4,26.1,30.05,East,80,5.0,12.0,91,0.00,,,0.00,Wunderground v.1.15,2013-03-06 09:41:00,
2013-03-06 04:44:00,28.5,25.9,30.05,NNE,30,3.0,12.0,90,0.00,,,0.00,Wunderground v.1.15,2013-03-06 09:44:00,
2013-03-06 04:46:00,28.5,25.9,30.05,North,9,8.0,12.0,90,0.00,,,0.00,Wunderground v.1.15,2013-03-06 09:46:00,
2013-03-06 04:49:00,28.6,26.3,30.05,North,360,6.0,15.0,91,0.00,,,0.00,Wunderground v.1.15,2013-03-06 09:49:00,
2013-03-06 04:51:00,28.7,26.4,30.05,NNE,17,7.0,10.0,91,0.00,,,0.00,Wunderground v.1.15,2013-03-06 09:51:00,
2013-03-06 04:52:00,28.7,26.4,30.05,ESE,113,5.0,14.0,91,0.00,,,0.00,Wunderground v.1.15,2013-03-06 09:52:00,
2013-03-06 04:54:00,28.8,26.5,30.05,NE,44,6.0,14.0,91,0.00,,,0.00,Wunderground v.1.15,2013-03-06 09:54:00,
2013-03-06 04:56:00,28.8,26.5,30.05,NE,42,6.0,14.0,91,0.00,,,0.00,Wunderground v.1.15,2013-03-06 09:56:00,
2013-03-06 04:57:00,28.8,26.5,30.05,ENE,64,3.0,14.0,91,0.00,,,0.00,Wunderground v.1.15,2013-03-06 09:57:00,
2013-03-06 04:59:00,28.8,26.5,30.05,North,360,8.0,14.0,91,0.00,,,0.00,Wunderground v.1.15,2013-03-06 09:59:00,
2013-03-06 05:00:00,28.8,26.5,30.05,NE,38,8.0,14.0,91,0.00,,,0.00,Wunderground v.1.15,2013-03-06 10:00:00,
2013-03-06 05:01:00,28.8,26.5,30.05,North,350,15.0,15.0,91,0.00,,,0.00,Wunderground v.1.15,2013-03-06 10:01:00,
2013-03-06 05:02:00,28.8,26.5,30.05,NNE,25,14.0,15.0,91,0.00,,,0.00,Wunderground v.1.15,2013-03-06 10:02:00,
2013-03-06 05:04:00,28.9,26.9,30.06,NNE,13,4.0,18.0,92,0.00,,,0.00,Wunderground v.1.15,2013-03-06 10:04:00,
2013-03-06 05:05:00,28.9,26.9,30.06,ENE,57,3.0,18.0,92,0.00,,,0.00,Wunderground v.1.15,2013-03-06 10:05:00,
2013-03-06 05:07:00,28.9,26.6,30.06,NNE,26,11.0,18.0,91,0.00,,,0.00,Wunderground v.1.15,2013-03-06 10:07:00,
2013-03-06 05:08:00,28.9,26.6,30.06,NE,40,12.0,18.0,91,0.00,,,0.00,Wunderground v.1.15,2013-03-06 10:08:00,
2013-03-06 05:10:00,29.0,27.0,30.06,North,355,12.0,12.0,92,0.00,,,0.00,Wunderground v.1.15,2013-03-06 10:10:00,
2013-03-06 05:13:00,29.0,26.7,30.06,NNE,24,9.0,16.0,91,0.00,,,0.00,Wunderground v.1.15,2013-03-06 10:13:00,
2013-03-06 05:15:00,29.0,26.7,30.06,NE,38,11.0,16.0,91,0.00,,,0.00,Wunderground v.1.15,2013-03-06 10:15:00,
2013-03-06 05:18:00,29.0,26.7,30.06,ENE,69,4.0,16.0,91,0.00,,,0.00,Wunderground v.1.15,2013-03-06 10:18:00,
2013-03-06 05:20:00,29.0,26.7,30.06,NNE,20,13.0,18.0,91,0.00,,,0.00,Wunderground v.1.15,2013-03-06 10:20:00,
2013-03-06 05:21:00,29.0,26.7,30.06,North,9,13.0,18.0,91,0.00,,,0.00,Wunderground v.1.15,2013-03-06 10:21:00,
2013-03-06 05:23:00,29.0,26.7,30.06,North,360,10.0,18.0,91,0.00,,,0.00,Wunderground v.1.15,2013-03-06 10:23:00,
2013-03-06 05:25:00,29.0,27.0,30.07,NNE,22,13.0,18.0,92,0.00,,,0.00,Wunderground v.1.15,2013-03-06 10:25:00,
2013-03-06 05:26:00,29.0,26.7,30.07,NNE,19,11.0,18.0,91,0.00,,,0.00,Wunderground v.1.15,2013-03-06 10:26:00,
2013-03-06 05:28:00,29.0,27.0,30.07,North,360,15.0,18.0,92,0.00,,,0.00,Wunderground v.1.15,2013-03-06 10:28:00,
2013-03-06 05:29:00,29.0,27.0,30.07,North,360,7.0,18.0,92,0.00,,,0.00,Wunderground v.1.15,2013-03-06 10:29:00,
2013-03-06 05:31:00,29.0,27.0,30.08,North,11,12.0,17.0,92,0.00,,,0.00,Wunderground v.1.15,2013-03-06 10:31:00,
2013-03-06 05:32:00,29.0,27.0,30.08,NNE,13,9.0,17.0,92,0.00,,,0.00,Wunderground v.1.15,2013-03-06 10:32:00,
2013-03-06 05:33:00,29.0,26.7,30.08,NNE,29,14.0,17.0,91,0.00,,,0.00,Wunderground v.1.15,2013-03-06 10:33:00,
2013-03-06 05:35:00,29.0,27.0,30.08,NNE,25,14.0,19.0,92,0.00,,,0.00,Wunderground v.1.15,2013-03-06 10:35:00,
2013-03-06 05:36:00,29.0,26.7,30.08,NNE,25,10.0,19.0,91,0.00,,,0.00,Wunderground v.1.15,2013-03-06 10:36:00,
2013-03-06 05:38:00,29.0,27.0,30.08,NNE,31,12.0,19.0,92,0.00,,,0.00,Wunderground v.1.15,2013-03-06 10:38:00,
2013-03-06 05:40:00,29.1,27.1,30.08,North,10,12.0,14.0,92,0.00,,,0.00,Wunderground v.1.15,2013-03-06 10:40:00,
2013-03-06 05:41:00,29.2,27.2,30.08,NE,42,9.0,14.0,92,0.00,,,0.00,Wunderground v.1.15,2013-03-06 10:41:00,
2013-03-06 05:43:00,29.3,27.3,30.08,NNE,18,12.0,16.0,92,0.00,,,0.00,Wunderground v.1.15,2013-03-06 10:43:00,
2013-03-06 05:45:00,29.3,27.3,30.08,NNE,29,10.0,16.0,92,0.00,,,0.00,Wunderground v.1.15,2013-03-06 10:45:00,
2013-03-06 05:46:00,29.3,27.3,30.08,NNE,19,11.0,16.0,92,0.00,,,0.00,Wunderground v.1.15,2013-03-06 10:46:00,
2013-03-06 05:48:00,29.3,27.3,30.08,NNE,27,13.0,16.0,92,0.00,,,0.00,Wunderground v.1.15,2013-03-06 10:48:00,
2013-03-06 05:49:00,29.4,27.4,30.08,NNE,13,13.0,18.0,92,0.00,,,0.00,Wunderground v.1.15,2013-03-06 10:49:00,
2013-03-06 05:51:00,29.4,27.4,30.08,NNE,13,11.0,19.0,92,0.00,,,0.00,Wunderground v.1.15,2013-03-06 10:51:00,
2013-03-06 05:52:00,29.4,27.4,30.09,North,9,13.0,19.0,92,0.00,,,0.00,Wunderground v.1.15,2013-03-06 10:52:00,
2013-03-06 05:53:00,29.4,27.4,30.09,North,9,16.0,19.0,92,0.00,,,0.00,Wunderground v.1.15,2013-03-06 10:53:00,
2013-03-06 05:54:00,29.5,27.5,30.08,NNE,23,14.0,19.0,92,0.00,,,0.00,Wunderground v.1.15,2013-03-06 10:54:00,
2013-03-06 05:56:00,29.6,27.6,30.09,North,360,11.0,19.0,92,0.00,,,0.00,Wunderground v.1.15,2013-03-06 10:56:00,
2013-03-06 05:57:00,29.6,27.6,30.09,NNE,15,10.0,19.0,92,0.00,,,0.00,Wunderground v.1.15,2013-03-06 10:57:00,
2013-03-06 05:59:00,29.7,27.7,30.09,NNE,13,14.0,19.0,92,0.00,,,0.00,Wunderground v.1.15,2013-03-06 10:59:00,
2013-03-06 06:01:00,29.8,27.8,30.09,NNE,22,10.0,14.0,92,0.00,,,0.00,Wunderground v.1.15,2013-03-06 11:01:00,
2013-03-06 06:02:00,29.8,27.8,30.09,NNE,22,7.0,14.0,92,0.00,,,0.00,Wunderground v.1.15,2013-03-06 11:02:00,
2013-03-06 06:04:00,29.8,27.8,30.09,NNE,22,9.0,14.0,92,0.00,,,0.00,Wunderground v.1.15,2013-03-06 11:04:00,
2013-03-06 06:06:00,29.8,27.8,30.09,NNE,21,11.0,16.0,92,0.00,,,0.00,Wunderground v.1.15,2013-03-06 11:06:00,
2013-03-06 06:07:00,29.8,27.8,30.09,North,11,13.0,16.0,92,0.00,,,0.00,Wunderground v.1.15,2013-03-06 11:07:00,
2013-03-06 06:09:00,29.8,27.8,30.09,NNE,28,12.0,16.0,92,0.00,,,0.00,Wunderground v.1.15,2013-03-06 11:09:00,
2013-03-06 06:11:00,29.7,27.4,30.09,NNE,13,12.0,16.0,91,0.00,,,0.00,Wunderground v.1.15,2013-03-06 11:11:00,
2013-03-06 06:12:00,29.8,27.5,30.10,North,11,12.0,16.0,91,0.00,,,0.00,Wunderground v.1.15,2013-03-06 11:12:00,
2013-03-06 06:14:00,29.9,27.9,30.09,NNE,19,10.0,16.0,92,0.00,,,0.00,Wunderground v.1.15,2013-03-06 11:14:00,
2013-03-06 06:15:00,29.9,27.9,30.10,NNE,25,15.0,16.0,92,0.00,,,0.00,Wunderground v.1.15,2013-03-06 11:15:00,
2013-03-06 06:16:00,29.9,27.9,30.10,North,360,16.0,18.0,92,0.00,,,0.00,Wunderground v.1.15,2013-03-06 11:16:00,
2013-03-06 06:18:00,29.9,27.6,30.10,NNE,23,13.0,18.0,91,0.00,,,0.00,Wunderground v.1.15,2013-03-06 11:18:00,
2013-03-06 06:19:00,29.9,27.6,30.10,NNE,28,11.0,18.0,91,0.00,,,0.00,Wunderground v.1.15,2013-03-06 11:19:00,
2013-03-06 06:21:00,29.8,27.5,30.10,NNE,18,7.0,15.0,91,0.00,,,0.00,Wunderground v.1.15,2013-03-06 11:21:00,
2013-03-06 06:22:00,29.8,27.5,30.10,North,9,14.0,18.0,91,0.00,,,0.00,Wunderground v.1.15,2013-03-06 11:22:00,
2013-03-06 06:23:00,29.9,27.6,30.10,NNE,19,9.0,18.0,91,0.00,,,0.00,Wunderground v.1.15,2013-03-06 11:23:00,
2013-03-06 06:25:00,29.9,27.6,30.11,NNE,23,10.0,18.0,91,0.00,,,0.00,Wunderground v.1.15,2013-03-06 11:25:00,
2013-03-06 06:26:00,29.9,27.6,30.11,NNE,15,10.0,18.0,91,0.00,,,0.00,Wunderground v.1.15,2013-03-06 11:26:00,
2013-03-06 06:27:00,29.9,27.6,30.11,NNE,22,11.0,18.0,91,0.00,,,0.00,Wunderground v.1.15,2013-03-06 11:27:00,
2013-03-06 06:28:00,30.0,28.0,30.11,North,355,7.0,18.0,92,0.00,,,0.00,Wunderground v.1.15,2013-03-06 11:28:00,
2013-03-06 06:31:00,30.0,27.7,30.11,NNE,18,11.0,16.0,91,0.00,,,0.00,Wunderground v.1.15,2013-03-06 11:31:00,
2013-03-06 06:32:00,30.0,27.7,30.11,North,11,13.0,16.0,91,0.00,,,0.00,Wunderground v.1.15,2013-03-06 11:32:00,
2013-03-06 06:33:00,30.1,27.8,30.11,NNE,24,12.0,16.0,91,0.00,,,0.00,Wunderground v.1.15,2013-03-06 11:33:00,
2013-03-06 06:36:00,30.2,28.2,30.11,NE,34,12.0,16.0,92,0.00,,,0.00,Wunderground v.1.15,2013-03-06 11:36:00,
2013-03-06 06:38:00,30.1,27.8,30.11,NNE,25,9.0,16.0,91,0.00,,,0.00,Wunderground v.1.15,2013-03-06 11:38:00,
2013-03-06 06:41:00,30.2,28.2,30.12,North,10,12.0,17.0,92,0.00,,,0.00,Wunderground v.1.15,2013-03-06 11:41:00,
2013-03-06 06:43:00,30.2,27.9,30.12,NNE,20,11.0,17.0,91,0.00,,,0.00,Wunderground v.1.15,2013-03-06 11:43:00,
2013-03-06 06:45:00,30.2,27.9,30.12,NE,43,15.0,17.0,91,0.00,,,0.00,Wunderground v.1.15,2013-03-06 11:45:00,
2013-03-06 06:46:00,30.2,27.9,30.12,NNE,23,12.0,17.0,91,0.00,,,0.00,Wunderground v.1.15,2013-03-06 11:46:00,
2013-03-06 06:48:00,30.2,27.9,30.12,NNE,21,15.0,18.0,91,0.00,,,0.00,Wunderground v.1.15,2013-03-06 11:48:00,
2013-03-06 06:49:00,30.2,27.9,30.12,NNE,13,10.0,18.0,91,0.00,,,0.00,Wunderground v.1.15,2013-03-06 11:49:00,
2013-03-06 06:50:00,30.2,27.9,30.12,NNE,22,12.0,18.0,91,0.00,,,0.00,Wunderground v.1.15,2013-03-06 11:50:00,
2013-03-06 06:51:00,30.2,27.9,30.12,NNE,12,17.0,18.0,91,0.00,,,0.00,Wunderground v.1.15,2013-03-06 11:51:00,
2013-03-06 06:54:00,30.3,28.0,30.12,NNE,28,12.0,18.0,91,0.00,,,0.00,Wunderground v.1.15,2013-03-06 11:54:00,
2013-03-06 06:55:00,30.3,28.0,30.12,NNE,17,10.0,18.0,91,0.00,,,0.00,Wunderground v.1.15,2013-03-06 11:55:00,
2013-03-06 06:56:00,30.3,28.0,30.12,NE,38,15.0,18.0,91,0.00,,,0.00,Wunderground v.1.15,2013-03-06 11:56:00,
2013-03-06 06:59:00,30.3,28.0,30.13,NNE,26,6.0,18.0,91,0.00,,,0.00,Wunderground v.1.15,2013-03-06 11:59:00,
2013-03-06 07:00:00,30.3,28.0,30.12,NNE,13,12.0,13.0,91,0.00,,,0.00,Wunderground v.1.15,2013-03-06 12:00:00,
2013-03-06 07:02:00,30.4,28.1,30.12,NNE,24,15.0,16.0,91,0.00,,,0.00,Wunderground v.1.15,2013-03-06 12:02:00,
2013-03-06 07:04:00,30.5,28.2,30.12,NNE,26,14.0,16.0,91,0.00,,,0.00,Wunderground v.1.15,2013-03-06 12:04:00,
2013-03-06 07:05:00,30.5,28.2,30.13,NNE,21,13.0,16.0,91,0.00,,,0.00,Wunderground v.1.15,2013-03-06 12:05:00,
2013-03-06 07:07:00,30.5,28.2,30.12,NNE,28,12.0,16.0,91,0.00,,,0.00,Wunderground v.1.15,2013-03-06 12:07:00,
2013-03-06 07:09:00,30.5,28.2,30.13,NE,34,10.0,18.0,91,0.00,,,0.00,Wunderground v.1.15,2013-03-06 12:09:00,
2013-03-06 07:10:00,30.4,28.1,30.13,NNE,31,17.0,18.0,91,0.00,,,0.00,Wunderground v.1.15,2013-03-06 12:10:00,
2013-03-06 07:12:00,30.4,28.1,30.13,NE,36,11.0,18.0,91,0.00,,,0.00,Wunderground v.1.15,2013-03-06 12:12:00,
2013-03-06 07:15:00,30.4,28.1,30.13,NNE,26,11.0,18.0,91,0.00,,,0.00,Wunderground v.1.15,2013-03-06 12:15:00,
2013-03-06 07:16:00,30.5,28.2,30.13,NE,37,13.0,18.0,91,0.00,,,0.00,Wunderground v.1.15,2013-03-06 12:16:00,
2013-03-06 07:17:00,30.5,28.2,30.13,ENE,61,12.0,18.0,91,0.00,,,0.00,Wunderground v.1.15,2013-03-06 12:17:00,
2013-03-06 07:20:00,30.5,27.9,30.13,NNE,22,11.0,14.0,90,0.00,,,0.00,Wunderground v.1.15,2013-03-06 12:20:00,
2013-03-06 07:21:00,30.5,27.9,30.13,NNE,13,8.0,14.0,90,0.00,,,0.00,Wunderground v.1.15,2013-03-06 12:21:00,
2013-03-06 07:22:00,30.5,28.2,30.13,North,360,6.0,14.0,91,0.00,,,0.00,Wunderground v.1.15,2013-03-06 12:22:00,
2013-03-06 07:23:00,30.6,28.3,30.13,NNE,14,7.0,14.0,91,0.00,,,0.00,Wunderground v.1.15,2013-03-06 12:23:00,
2013-03-06 07:25:00,30.6,28.3,30.13,NNE,28,12.0,18.0,91,0.00,,,0.00,Wunderground v.1.15,2013-03-06 12:25:00,
2013-03-06 07:27:00,30.6,28.3,30.13,NNE,14,14.0,18.0,91,0.00,,,0.00,Wunderground v.1.15,2013-03-06 12:27:00,
2013-03-06 07:29:00,30.6,28.3,30.14,NNE,17,9.0,18.0,91,0.00,,,0.00,Wunderground v.1.15,2013-03-06 12:29:00,
2013-03-06 07:30:00,30.6,28.3,30.14,NNE,13,13.0,17.0,91,0.00,,,0.00,Wunderground v.1.15,2013-03-06 12:30:00,
2013-03-06 07:32:00,30.6,28.3,30.14,NNE,12,12.0,17.0,91,0.00,,,0.00,Wunderground v.1.15,2013-03-06 12:32:00,
2013-03-06 07:33:00,30.7,28.4,30.14,NNE,19,10.0,17.0,91,0.00,,,0.00,Wunderground v.1.15,2013-03-06 12:33:00,
2013-03-06 07:34:00,30.7,28.4,30.14,NNE,24,13.0,17.0,91,0.00,,,0.00,Wunderground v.1.15,2013-03-06 12:34:00,
2013-03-06 07:36:00,30.7,28.4,30.14,NE,41,14.0,17.0,91,0.00,,,0.00,Wunderground v.1.15,2013-03-06 12:36:00,
2013-03-06 07:37:00,30.7,28.4,30.14,NNE,26,15.0,17.0,91,0.00,,,0.00,Wunderground v.1.15,2013-03-06 12:37:00,
2013-03-06 07:39:00,30.7,28.4,30.14,NNE,17,13.0,17.0,91,0.00,,,0.00,Wunderground v.1.15,2013-03-06 12:39:00,
2013-03-06 07:41:00,30.7,28.4,30.14,NNE,19,13.0,16.0,91,0.00,,,0.00,Wunderground v.1.15,2013-03-06 12:41:00,
2013-03-06 07:43:00,30.8,28.5,30.14,NE,34,9.0,17.0,91,0.00,,,0.00,Wunderground v.1.15,2013-03-06 12:43:00,
2013-03-06 07:44:00,30.8,28.5,30.15,NNE,19,10.0,17.0,91,0.00,,,0.00,Wunderground v.1.15,2013-03-06 12:44:00,
2013-03-06 07:46:00,30.8,28.5,30.14,NNE,24,12.0,17.0,91,0.00,,,0.00,Wunderground v.1.15,2013-03-06 12:46:00,
2013-03-06 07:49:00,30.8,28.5,30.14,NE,38,11.0,17.0,91,0.00,,,0.00,Wunderground v.1.15,2013-03-06 12:49:00,
2013-03-06 07:51:00,30.8,28.5,30.14,NNE,23,10.0,18.0,91,0.00,,,0.00,Wunderground v.1.15,2013-03-06 12:51:00,
2013-03-06 07:54:00,30.9,28.6,30.15,North,9,12.0,18.0,91,0.00,,,0.00,Wunderground v.1.15,2013-03-06 12:54:00,
2013-03-06 07:56:00,31.0,28.7,30.15,NNE,13,15.0,18.0,91,0.00,,,0.00,Wunderground v.1.15,2013-03-06 12:56:00,
2013-03-06 07:59:00,31.0,28.7,30.15,NE,38,13.0,18.0,91,0.00,,,0.00,Wunderground v.1.15,2013-03-06 12:59:00,
2013-03-06 08:00:00,31.0,28.7,30.15,NNE,24,15.0,18.0,91,0.00,,,0.00,Wunderground v.1.15,2013-03-06 13:00:00,
2013-03-06 08:01:00,31.0,28.7,30.15,NE,38,11.0,15.0,91,0.00,,,0.00,Wunderground v.1.15,2013-03-06 13:01:00,
2013-03-06 08:04:00,31.0,28.7,30.15,NNE,24,12.0,17.0,91,0.00,,,0.00,Wunderground v.1.15,2013-03-06 13:04:00,
2013-03-06 08:05:00,31.0,28.7,30.15,NNE,30,13.0,17.0,91,0.00,,,0.00,Wunderground v.1.15,2013-03-06 13:05:00,
2013-03-06 08:06:00,31.0,28.7,30.15,North,9,9.0,17.0,91,0.00,,,0.00,Wunderground v.1.15,2013-03-06 13:06:00,
2013-03-06 08:10:00,31.0,28.4,30.15,NE,45,8.0,11.0,90,0.00,,,0.00,Wunderground v.1.15,2013-03-06 13:10:00,
2013-03-06 08:12:00,31.0,28.4,30.16,NE,49,10.0,18.0,90,0.00,,,0.00,Wunderground v.1.15,2013-03-06 13:12:00,
2013-03-06 08:15:00,31.0,28.4,30.16,NE,51,9.0,18.0,90,0.00,,,0.00,Wunderground v.1.15,2013-03-06 13:15:00,
2013-03-06 08:16:00,31.0,28.4,30.16,NE,40,9.0,18.0,90,0.00,,,0.00,Wunderground v.1.15,2013-03-06 13:16:00,
2013-03-06 08:17:00,31.0,28.4,30.16,NNW,340,5.0,18.0,90,0.00,,,0.00,Wunderground v.1.15,2013-03-06 13:17:00,
2013-03-06 08:20:00,31.0,28.4,30.16,NE,42,12.0,15.0,90,0.00,,,0.00,Wunderground v.1.15,2013-03-06 13:20:00,
2013-03-06 08:21:00,31.0,28.4,30.16,NNE,30,12.0,15.0,90,0.00,,,0.00,Wunderground v.1.15,2013-03-06 13:21:00,
2013-03-06 08:22:00,31.0,28.4,30.16,NE,36,11.0,15.0,90,0.00,,,0.00,Wunderground v.1.15,2013-03-06 13:22:00,
2013-03-06 08:25:00,31.0,28.4,30.16,North,350,9.0,16.0,90,0.00,,,0.00,Wunderground v.1.15,2013-03-06 13:25:00,
2013-03-06 08:26:00,31.0,28.4,30.16,NE,37,9.0,16.0,90,0.00,,,0.00,Wunderground v.1.15,2013-03-06 13:26:00,
2013-03-06 08:27:00,31.1,28.5,30.16,North,360,4.0,16.0,90,0.00,,,0.00,Wunderground v.1.15,2013-03-06 13:27:00,
2013-03-06 08:30:00,31.0,28.4,30.16,NNE,28,10.0,13.0,90,0.00,,,0.00,Wunderground v.1.15,2013-03-06 13:30:00,
2013-03-06 08:31:00,31.1,28.5,30.16,NE,38,12.0,13.0,90,0.00,,,0.00,Wunderground v.1.15,2013-03-06 13:31:00,
2013-03-06 08:32:00,31.0,28.4,30.16,NNE,22,12.0,16.0,90,0.00,,,0.00,Wunderground v.1.15,2013-03-06 13:32:00,
2013-03-06 08:36:00,31.0,28.4,30.16,NNE,25,6.0,18.0,90,0.00,,,0.00,Wunderground v.1.15,2013-03-06 13:36:00,
2013-03-06 08:37:00,31.0,28.4,30.16,NNE,24,12.0,18.0,90,0.00,,,0.00,Wunderground v.1.15,2013-03-06 13:37:00,
2013-03-06 08:38:00,31.1,28.5,30.16,NNE,13,11.0,18.0,90,0.00,,,0.00,Wunderground v.1.15,2013-03-06 13:38:00,
2013-03-06 08:41:00,31.1,28.5,30.16,North,9,5.0,14.0,90,0.00,,,0.00,Wunderground v.1.15,2013-03-06 13:41:00,
2013-03-06 08:42:00,31.1,28.5,30.16,North,360,4.0,14.0,90,0.00,,,0.00,Wunderground v.1.15,2013-03-06 13:42:00,
2013-03-06 08:43:00,31.1,28.5,30.16,NNE,14,7.0,14.0,90,0.00,,,0.00,Wunderground v.1.15,2013-03-06 13:43:00,
2013-03-06 08:46:00,31.1,28.5,30.16,NNE,28,4.0,14.0,90,0.00,,,0.00,Wunderground v.1.15,2013-03-06 13:46:00,
2013-03-06 08:48:00,31.1,28.5,30.17,NNE,17,5.0,14.0,90,0.00,,,0.00,Wunderground v.1.15,2013-03-06 13:48:00,
2013-03-06 08:51:00,31.2,28.6,30.17,NNE,26,10.0,15.0,90,0.00,,,0.00,Wunderground v.1.15,2013-03-06 13:51:00,
2013-03-06 08:52:00,31.2,28.6,30.17,NNE,13,4.0,15.0,90,0.00,,,0.00,Wunderground v.1.15,2013-03-06 13:52:00,
2013-03-06 08:53:00,31.2,28.9,30.17,ENE,74,2.0,15.0,91,0.00,,,0.00,Wunderground v.1.15,2013-03-06 13:53:00,
2013-03-06 08:54:00,31.2,28.6,30.17,ENE,63,3.0,15.0,90,0.00,,,0.00,Wunderground v.1.15,2013-03-06 13:54:00,
2013-03-06 08:57:00,31.2,28.6,30.17,NE,36,3.0,15.0,90,0.00,,,0.00,Wunderground v.1.15,2013-03-06 13:57:00,
2013-03-06 08:58:00,31.2,28.6,30.17,NNE,13,4.0,15.0,90,0.00,,,0.00,Wunderground v.1.15,2013-03-06 13:58:00,
2013-03-06 08:59:00,31.2,28.6,30.17,ENE,57,1.0,15.0,90,0.00,,,0.00,Wunderground v.1.15,2013-03-06 13:59:00,
2013-03-06 09:02:00,31.2,28.6,30.17,East,90,3.0,9.0,90,0.00,,,0.00,Wunderground v.1.15,2013-03-06 14:02:00,
2013-03-06 09:03:00,31.2,28.6,30.17,ENE,72,6.0,9.0,90,0.00,,,0.00,Wunderground v.1.15,2013-03-06 14:03:00,
2013-03-06 09:05:00,31.2,28.6,30.17,SSE,167,1.0,9.0,90,0.00,,,0.00,Wunderground v.1.15,2013-03-06 14:05:00,
2013-03-06 09:07:00,31.2,28.6,30.17,ENE,67,2.0,11.0,90,0.00,,,0.00,Wunderground v.1.15,2013-03-06 14:07:00,
2013-03-06 09:09:00,31.2,28.6,30.17,NNE,15,3.0,15.0,90,0.00,,,0.00,Wunderground v.1.15,2013-03-06 14:09:00,
2013-03-06 09:10:00,31.2,28.6,30.17,ENE,76,2.0,4.0,90,0.00,,,0.00,Wunderground v.1.15,2013-03-06 14:10:00,
2013-03-06 09:13:00,31.2,28.6,30.17,ENE,67,11.0,12.0,90,0.00,,,0.00,Wunderground v.1.15,2013-03-06 14:13:00,
2013-03-06 09:14:00,31.3,28.7,30.17,NE,45,7.0,16.0,90,0.00,,,0.00,Wunderground v.1.15,2013-03-06 14:14:00,
2013-03-06 09:15:00,31.3,28.7,30.17,ENE,72,6.0,16.0,90,0.00,,,0.00,Wunderground v.1.15,2013-03-06 14:15:00,
2013-03-06 09:18:00,31.4,28.8,30.17,NE,43,2.0,16.0,90,0.00,,,0.00,Wunderground v.1.15,2013-03-06 14:18:00,
2013-03-06 09:20:00,31.4,28.8,30.18,East,79,2.0,6.0,90,0.00,,,0.00,Wunderground v.1.15,2013-03-06 14:20:00,
2013-03-06 09:21:00,31.4,28.8,30.18,NNE,23,6.0,6.0,90,0.00,,,0.00,Wunderground v.1.15,2013-03-06 14:21:00,
2013-03-06 09:23:00,31.4,28.8,30.18,NNE,21,6.0,10.0,90,0.00,,,0.00,Wunderground v.1.15,2013-03-06 14:23:00,
2013-03-06 09:25:00,31.4,28.8,30.18,North,9,4.0,13.0,90,0.00,,,0.00,Wunderground v.1.15,2013-03-06 14:25:00,
2013-03-06 09:26:00,31.4,28.8,30.18,NE,55,2.0,13.0,90,0.00,,,0.00,Wunderground v.1.15,2013-03-06 14:26:00,
2013-03-06 09:28:00,31.5,28.6,30.18,NE,56,9.0,13.0,89,0.00,,,0.00,Wunderground v.1.15,2013-03-06 14:28:00,
2013-03-06 09:30:00,31.4,28.5,30.18,NNE,17,4.0,5.0,89,0.00,,,0.00,Wunderground v.1.15,2013-03-06 14:30:00,
2013-03-06 09:31:00,31.5,28.6,30.18,ENE,65,1.0,5.0,89,0.00,,,0.00,Wunderground v.1.15,2013-03-06 14:31:00,
2013-03-06 09:33:00,31.5,28.6,30.18,NE,38,6.0,7.0,89,0.00,,,0.00,Wunderground v.1.15,2013-03-06 14:33:00,
2013-03-06 09:34:00,31.5,28.6,30.18,NE,48,3.0,7.0,89,0.00,,,0.00,Wunderground v.1.15,2013-03-06 14:34:00,
2013-03-06 09:35:00,31.6,28.7,30.18,NNE,19,2.0,7.0,89,0.00,,,0.00,Wunderground v.1.15,2013-03-06 14:35:00,
2013-03-06 09:37:00,31.6,28.7,30.18,North,5,3.0,7.0,89,0.00,,,0.00,Wunderground v.1.15,2013-03-06 14:37:00,
2013-03-06 09:38:00,31.7,28.8,30.18,East,80,9.0,13.0,89,0.00,,,0.00,Wunderground v.1.15,2013-03-06 14:38:00,
2013-03-06 09:40:00,31.7,28.8,30.18,NNE,30,3.0,13.0,89,0.00,,,0.00,Wunderground v.1.15,2013-03-06 14:40:00,
2013-03-06 09:43:00,31.8,28.9,30.17,NNE,13,2.0,12.0,89,0.00,,,0.00,Wunderground v.1.15,2013-03-06 14:43:00,
2013-03-06 09:44:00,31.9,29.0,30.17,NNE,13,1.0,12.0,89,0.00,,,0.00,Wunderground v.1.15,2013-03-06 14:44:00,
2013-03-06 09:45:00,31.9,28.8,30.18,ENE,69,2.0,12.0,88,0.00,,,0.00,Wunderground v.1.15,2013-03-06 14:45:00,
2013-03-06 09:46:00,31.9,28.8,30.18,NNE,31,0.0,12.0,88,0.00,,,0.00,Wunderground v.1.15,2013-03-06 14:46:00,
2013-03-06 09:48:00,32.0,28.8,30.18,ENE,57,0.0,12.0,88,0.00,,,0.00,Wunderground v.1.15,2013-03-06 14:48:00,
2013-03-06 09:49:00,32.0,28.8,30.18,NE,34,0.0,12.0,88,0.00,,,0.00,Wunderground v.1.15,2013-03-06 14:49:00,
2013-03-06 09:50:00,32.1,28.9,30.17,NE,55,2.0,9.0,88,0.00,,,0.00,Wunderground v.1.15,2013-03-06 14:50:00,
2013-03-06 09:51:00,32.1,28.9,30.18,East,83,4.0,9.0,88,0.00,,,0.00,Wunderground v.1.15,2013-03-06 14:51:00,
2013-03-06 09:53:00,32.3,29.1,30.18,NNE,15,2.0,9.0,88,0.00,,,0.00,Wunderground v.1.15,2013-03-06 14:53:00,
2013-03-06 09:55:00,32.3,29.1,30.18,NE,35,5.0,9.0,88,0.00,,,0.00,Wunderground v.1.15,2013-03-06 14:55:00,
2013-03-06 09:56:00,32.4,29.2,30.18,NE,53,6.0,9.0,88,0.00,,,0.00,Wunderground v.1.15,2013-03-06 14:56:00,
2013-03-06 09:58:00,32.5,29.3,30.18,NE,42,2.0,9.0,88,0.00,,,0.00,Wunderground v.1.15,2013-03-06 14:58:00,
2013-03-06 10:00:00,32.5,29.3,30.18,East,84,0.0,4.0,88,0.00,,,0.00,Wunderground v.1.15,2013-03-06 15:00:00,
2013-03-06 10:01:00,32.5,29.3,30.18,NNE,28,9.0,10.0,88,0.00,,,0.00,Wunderground v.1.15,2013-03-06 15:01:00,
2013-03-06 10:04:00,32.6,29.2,30.18,NE,34,1.0,14.0,87,0.00,,,0.00,Wunderground v.1.15,2013-03-06 15:04:00,
2013-03-06 10:06:00,32.6,29.2,30.18,NE,47,3.0,14.0,87,0.00,,,0.00,Wunderground v.1.15,2013-03-06 15:06:00,
2013-03-06 10:09:00,32.8,29.4,30.18,NNW,346,6.0,14.0,87,0.00,,,0.00,Wunderground v.1.15,2013-03-06 15:09:00,
2013-03-06 10:11:00,32.9,29.5,30.19,NNE,16,6.0,8.0,87,0.00,,,0.00,Wunderground v.1.15,2013-03-06 15:11:00,
2013-03-06 10:14:00,32.8,29.4,30.19,NE,46,3.0,11.0,87,0.00,,,0.00,Wunderground v.1.15,2013-03-06 15:14:00,
2013-03-06 10:16:00,32.8,29.1,30.19,NNE,18,4.0,12.0,86,0.00,,,0.00,Wunderground v.1.15,2013-03-06 15:16:00,
2013-03-06 10:17:00,32.8,29.1,30.19,NNE,32,5.0,12.0,86,0.00,,,0.00,Wunderground v.1.15,2013-03-06 15:17:00,
2013-03-06 10:19:00,32.8,29.1,30.19,North,9,4.0,13.0,86,0.00,,,0.00,Wunderground v.1.15,2013-03-06 15:19:00,
2013-03-06 10:21:00,32.8,29.1,30.19,NNE,16,9.0,9.0,86,0.00,,,0.00,Wunderground v.1.15,2013-03-06 15:21:00,
2013-03-06 10:22:00,32.8,29.1,30.19,NE,38,4.0,9.0,86,0.00,,,0.00,Wunderground v.1.15,2013-03-06 15:22:00,
2013-03-06 10:24:00,32.9,29.5,30.20,NNE,24,5.0,10.0,87,0.00,,,0.00,Wunderground v.1.15,2013-03-06 15:24:00,
2013-03-06 10:26:00,32.9,29.5,30.20,North,9,12.0,12.0,87,0.00,,,0.00,Wunderground v.1.15,2013-03-06 15:26:00,
2013-03-06 10:27:00,32.9,29.5,30.20,NNE,31,12.0,12.0,87,0.00,,,0.00,Wunderground v.1.15,2013-03-06 15:27:00,
2013-03-06 10:30:00,32.9,29.5,30.19,NNE,23,5.0,6.0,87,0.00,,,0.00,Wunderground v.1.15,2013-03-06 15:30:00,
2013-03-06 10:32:00,32.9,29.5,30.19,ENE,67,5.0,10.0,87,0.00,,,0.00,Wunderground v.1.15,2013-03-06 15:32:00,
2013-03-06 10:36:00,33.0,29.6,30.19,NNE,21,4.0,11.0,87,0.00,,,0.00,Wunderground v.1.15,2013-03-06 15:36:00,
2013-03-06 10:37:00,33.1,29.7,30.19,ENE,60,5.0,11.0,87,0.00,,,0.00,Wunderground v.1.15,2013-03-06 15:37:00,
2013-03-06 10:38:00,33.1,29.7,30.19,NE,34,4.0,11.0,87,0.00,,,0.00,Wunderground v.1.15,2013-03-06 15:38:00,
2013-03-06 10:41:00,33.3,29.8,30.20,NNE,21,4.0,8.0,87,0.00,,,0.00,Wunderground v.1.15,2013-03-06 15:41:00,
2013-03-06 10:43:00,33.3,29.8,30.20,NNE,29,6.0,8.0,87,0.00,,,0.00,Wunderground v.1.15,2013-03-06 15:43:00,
2013-03-06 10:47:00,33.2,29.8,30.20,NNE,18,5.0,10.0,87,0.00,,,0.00,Wunderground v.1.15,2013-03-06 15:47:00,
2013-03-06 10:48:00,33.2,30.0,30.20,North,9,9.0,10.0,88,0.00,,,0.00,Wunderground v.1.15,2013-03-06 15:48:00,
2013-03-06 10:52:00,33.2,30.0,30.20,NNE,21,10.0,11.0,88,0.00,,,0.00,Wunderground v.1.15,2013-03-06 15:52:00,
2013-03-06 10:53:00,33.1,29.9,30.21,NNE,29,7.0,11.0,88,0.00,,,0.00,Wunderground v.1.15,2013-03-06 15:53:00,
2013-03-06 10:54:00,33.1,29.9,30.21,NNE,24,7.0,11.0,88,0.00,,,0.00,Wunderground v.1.15,2013-03-06 15:54:00,
2013-03-06 10:57:00,33.0,29.8,30.21,NE,36,5.0,11.0,88,0.00,,,0.00,Wunderground v.1.15,2013-03-06 15:57:00,
2013-03-06 10:58:00,33.0,29.8,30.21,NNE,30,12.0,15.0,88,0.00,,,0.00,Wunderground v.1.15,2013-03-06 15:58:00,
2013-03-06 10:59:00,33.0,29.8,30.21,NNE,28,9.0,15.0,88,0.00,,,0.00,Wunderground v.1.15,2013-03-06 15:59:00,
2013-03-06 11:00:00,32.9,29.7,30.21,NE,37,10.0,10.0,88,0.00,,,0.00,Wunderground v.1.15,2013-03-06 16:00:00,
2013-03-06 11:03:00,32.9,29.7,30.21,NE,34,6.0,12.0,88,0.00,,,0.00,Wunderground v.1.15,2013-03-06 16:03:00,
2013-03-06 11:04:00,32.9,29.7,30.21,NNE,26,9.0,12.0,88,0.00,,,0.00,Wunderground v.1.15,2013-03-06 16:04:00,
2013-03-06 11:05:00,33.0,29.8,30.21,NNE,26,7.0,12.0,88,0.00,,,0.00,Wunderground v.1.15,2013-03-06 16:05:00,
2013-03-06 11:08:00,33.0,29.8,30.21,NNE,19,4.0,12.0,88,0.00,,,0.00,Wunderground v.1.15,2013-03-06 16:08:00,
2013-03-06 11:09:00,33.0,29.8,30.21,NNE,22,10.0,12.0,88,0.00,,,0.00,Wunderground v.1.15,2013-03-06 16:09:00,
2013-03-06 11:10:00,33.0,29.8,30.21,NNE,14,5.0,9.0,88,0.00,,,0.00,Wunderground v.1.15,2013-03-06 16:10:00,
2013-03-06 11:14:00,32.9,29.7,30.22,NNE,24,6.0,12.0,88,0.00,,,0.00,Wunderground v.1.15,2013-03-06 16:14:00,
2013-03-06 11:15:00,32.9,29.7,30.22,NNE,25,7.0,12.0,88,0.00,,,0.00,Wunderground v.1.15,2013-03-06 16:15:00,
2013-03-06 11:19:00,33.0,30.1,30.22,NNE,25,5.0,12.0,89,0.00,,,0.00,Wunderground v.1.15,2013-03-06 16:19:00,
2013-03-06 11:20:00,33.0,30.1,30.21,NNE,26,5.0,7.0,89,0.00,,,0.01,Wunderground v.1.15,2013-03-06 16:20:00,
2013-03-06 11:21:00,33.0,30.1,30.21,NNE,32,6.0,9.0,89,0.00,,,0.01,Wunderground v.1.15,2013-03-06 16:21:00,
2013-03-06 11:24:00,33.2,30.0,30.21,NNE,29,7.0,12.0,88,0.00,,,0.01,Wunderground v.1.15,2013-03-06 16:24:00,
2013-03-06 11:25:00,33.2,30.0,30.21,NNE,24,6.0,12.0,88,0.00,,,0.01,Wunderground v.1.15,2013-03-06 16:25:00,
2013-03-06 11:26:00,33.2,30.0,30.21,North,11,3.0,12.0,88,0.00,,,0.01,Wunderground v.1.15,2013-03-06 16:26:00,
2013-03-06 11:29:00,33.3,30.1,30.22,NNE,29,7.0,12.0,88,0.00,,,0.01,Wunderground v.1.15,2013-03-06 16:29:00,
2013-03-06 11:30:00,33.3,30.1,30.22,North,360,5.0,7.0,88,0.00,,,0.01,Wunderground v.1.15,2013-03-06 16:30:00,
2013-03-06 11:32:00,33.3,29.8,30.22,NNE,32,7.0,11.0,87,0.00,,,0.01,Wunderground v.1.15,2013-03-06 16:32:00,
2013-03-06 11:34:00,33.4,29.9,30.22,NNE,22,5.0,11.0,87,0.00,,,0.01,Wunderground v.1.15,2013-03-06 16:34:00,
2013-03-06 11:35:00,33.4,29.9,30.22,North,9,12.0,12.0,87,0.00,,,0.01,Wunderground v.1.15,2013-03-06 16:35:00,
2013-03-06 11:37:00,33.4,29.9,30.22,NNE,26,5.0,12.0,87,0.00,,,0.02,Wunderground v.1.15,2013-03-06 16:37:00,
2013-03-06 11:40:00,33.4,29.9,30.22,NNE,25,8.0,9.0,87,0.00,,,0.02,Wunderground v.1.15,2013-03-06 16:40:00,
2013-03-06 11:41:00,33.4,29.9,30.22,NNE,32,6.0,9.0,87,0.00,,,0.02,Wunderground v.1.15,2013-03-06 16:41:00,
2013-03-06 11:42:00,33.5,30.0,30.22,NNE,13,3.0,10.0,87,0.00,,,0.02,Wunderground v.1.15,2013-03-06 16:42:00,
2013-03-06 11:46:00,33.5,30.0,30.21,NNE,15,1.0,10.0,87,0.00,,,0.02,Wunderground v.1.15,2013-03-06 16:46:00,
2013-03-06 11:48:00,33.6,30.1,30.22,NNE,19,5.0,11.0,87,0.00,,,0.02,Wunderground v.1.15,2013-03-06 16:48:00,
2013-03-06 11:51:00,33.6,29.9,30.22,North,9,5.0,12.0,86,0.05,,,0.03,Wunderground v.1.15,2013-03-06 16:51:00,
2013-03-06 11:53:00,33.7,30.0,30.22,North,11,6.0,12.0,86,0.05,,,0.03,Wunderground v.1.15,2013-03-06 16:53:00,
2013-03-06 11:56:00,33.7,30.0,30.22,NNW,347,7.0,12.0,86,0.05,,,0.03,Wunderground v.1.15,2013-03-06 16:56:00,
2013-03-06 11:58:00,33.8,30.1,30.22,NE,39,5.0,12.0,86,0.07,,,0.03,Wunderground v.1.15,2013-03-06 16:58:00,
2013-03-06 12:01:00,33.9,30.2,30.22,NNW,346,6.0,9.0,86,0.07,,,0.04,Wunderground v.1.15,2013-03-06 17:01:00,
2013-03-06 12:03:00,33.9,29.9,30.22,NNE,23,5.0,10.0,85,0.07,,,0.04,Wunderground v.1.15,2013-03-06 17:03:00,
2013-03-06 12:06:00,33.9,29.9,30.23,NE,34,5.0,10.0,85,0.07,,,0.04,Wunderground v.1.15,2013-03-06 17:06:00,
2013-03-06 12:09:00,33.9,29.9,30.23,NNE,19,5.0,10.0,85,0.06,,,0.05,Wunderground v.1.15,2013-03-06 17:09:00,
2013-03-06 12:12:00,33.8,29.8,30.23,NNE,30,12.0,12.0,85,0.06,,,0.05,Wunderground v.1.15,2013-03-06 17:12:00,
2013-03-06 12:14:00,33.8,29.8,30.23,North,360,6.0,12.0,85,0.06,,,0.05,Wunderground v.1.15,2013-03-06 17:14:00,
2013-03-06 12:17:00,33.7,29.7,30.23,NNE,23,5.0,12.0,85,0.06,,,0.05,Wunderground v.1.15,2013-03-06 17:17:00,
2013-03-06 12:19:00,33.8,29.8,30.23,NE,40,3.0,12.0,85,0.05,,,0.05,Wunderground v.1.15,2013-03-06 17:19:00,
2013-03-06 12:22:00,33.8,29.8,30.23,North,355,4.0,9.0,85,0.05,,,0.06,Wunderground v.1.15,2013-03-06 17:22:00,
2013-03-06 12:25:00,33.9,29.9,30.23,NE,36,7.0,12.0,85,0.05,,,0.06,Wunderground v.1.15,2013-03-06 17:25:00,
2013-03-06 12:27:00,33.9,29.6,30.23,NNE,24,2.0,12.0,84,0.05,,,0.06,Wunderground v.1.15,2013-03-06 17:27:00,
2013-03-06 12:30:00,34.1,29.8,30.23,NNE,15,4.0,6.0,84,0.05,,,0.06,Wunderground v.1.15,2013-03-06 17:30:00,
2013-03-06 12:32:00,34.1,29.8,30.23,North,10,10.0,10.0,84,0.05,,,0.07,Wunderground v.1.15,2013-03-06 17:32:00,
2013-03-06 12:33:00,34.1,29.8,30.23,NE,40,5.0,10.0,84,0.05,,,0.07,Wunderground v.1.15,2013-03-06 17:33:00,
2013-03-06 12:35:00,34.1,29.8,30.23,NNE,13,4.0,10.0,84,0.05,,,0.07,Wunderground v.1.15,2013-03-06 17:35:00,
2013-03-06 12:37:00,34.1,29.8,30.23,North,9,4.0,10.0,84,0.05,,,0.07,Wunderground v.1.15,2013-03-06 17:37:00,
2013-03-06 12:38:00,34.2,29.9,30.23,NNE,18,4.0,10.0,84,0.05,,,0.07,Wunderground v.1.15,2013-03-06 17:38:00,
2013-03-06 12:40:00,34.2,29.9,30.23,NNW,347,6.0,6.0,84,0.05,,,0.07,Wunderground v.1.15,2013-03-06 17:40:00,
2013-03-06 12:43:00,34.2,29.9,30.23,NNE,16,3.0,10.0,84,0.07,,,0.08,Wunderground v.1.15,2013-03-06 17:43:00,
2013-03-06 12:46:00,34.3,30.0,30.23,North,355,2.0,10.0,84,0.07,,,0.08,Wunderground v.1.15,2013-03-06 17:46:00,
2013-03-06 12:48:00,34.4,30.1,30.23,NNE,14,5.0,10.0,84,0.07,,,0.08,Wunderground v.1.15,2013-03-06 17:48:00,
2013-03-06 12:49:00,34.4,30.1,30.23,NNW,346,3.0,11.0,84,0.08,,,0.09,Wunderground v.1.15,2013-03-06 17:49:00,
2013-03-06 12:51:00,34.4,30.1,30.23,NNE,30,4.0,9.0,84,0.08,,,0.09,Wunderground v.1.15,2013-03-06 17:51:00,
2013-03-06 12:53:00,34.4,30.1,30.23,NE,48,6.0,9.0,84,0.08,,,0.09,Wunderground v.1.15,2013-03-06 17:53:00,
2013-03-06 12:54:00,34.4,30.1,30.23,North,355,4.0,9.0,84,0.08,,,0.09,Wunderground v.1.15,2013-03-06 17:54:00,
2013-03-06 12:57:00,34.4,29.8,30.23,NNE,15,5.0,9.0,83,0.08,,,0.10,Wunderground v.1.15,2013-03-06 17:57:00,
2013-03-06 12:59:00,34.3,29.7,30.23,NE,36,6.0,9.0,83,0.08,,,0.10,Wunderground v.1.15,2013-03-06 17:59:00,
2013-03-06 13:02:00,34.2,29.9,30.23,NNE,26,4.0,7.0,84,0.08,,,0.10,Wunderground v.1.15,2013-03-06 18:02:00,
2013-03-06 13:04:00,34.2,29.9,30.23,NNE,23,6.0,10.0,84,0.08,,,0.10,Wunderground v.1.15,2013-03-06 18:04:00,
2013-03-06 13:07:00,34.2,29.9,30.23,NE,38,4.0,10.0,84,0.07,,,0.11,Wunderground v.1.15,2013-03-06 18:07:00,
2013-03-06 13:09:00,34.2,30.2,30.23,NE,42,4.0,10.0,85,0.07,,,0.11,Wunderground v.1.15,2013-03-06 18:09:00,
2013-03-06 13:10:00,34.3,30.3,30.23,NNE,27,7.0,10.0,85,0.07,,,0.11,Wunderground v.1.15,2013-03-06 18:10:00,
2013-03-06 13:12:00,34.4,30.1,30.23,NNE,32,6.0,7.0,84,0.07,,,0.11,Wunderground v.1.15,2013-03-06 18:12:00,
2013-03-06 13:14:00,34.4,30.1,30.23,NNE,20,5.0,7.0,84,0.07,,,0.12,Wunderground v.1.15,2013-03-06 18:14:00,
2013-03-06 13:15:00,34.4,30.1,30.23,NE,49,6.0,7.0,84,0.07,,,0.12,Wunderground v.1.15,2013-03-06 18:15:00,
2013-03-06 13:17:00,34.4,30.1,30.23,NE,36,4.0,7.0,84,0.07,,,0.12,Wunderground v.1.15,2013-03-06 18:17:00,
2013-03-06 13:19:00,34.4,30.1,30.23,NNE,33,4.0,7.0,84,0.07,,,0.12,Wunderground v.1.15,2013-03-06 18:19:00,
2013-03-06 13:20:00,34.4,30.1,30.23,NNE,32,6.0,6.0,84,0.07,,,0.12,Wunderground v.1.15,2013-03-06 18:20:00,
2013-03-06 13:23:00,34.4,30.1,30.22,NE,34,4.0,9.0,84,0.08,,,0.13,Wunderground v.1.15,2013-03-06 18:23:00,
2013-03-06 13:25:00,34.4,30.1,30.22,NNE,22,5.0,9.0,84,0.08,,,0.13,Wunderground v.1.15,2013-03-06 18:25:00,
2013-03-06 13:26:00,34.4,30.1,30.22,NNE,26,5.0,9.0,84,0.08,,,0.13,Wunderground v.1.15,2013-03-06 18:26:00,
2013-03-06 13:28:00,34.4,30.1,30.22,NNE,21,6.0,9.0,84,0.08,,,0.13,Wunderground v.1.15,2013-03-06 18:28:00,
2013-03-06 13:30:00,34.4,30.1,30.22,NNE,28,9.0,9.0,84,0.07,,,0.13,Wunderground v.1.15,2013-03-06 18:30:00,
2013-03-06 13:31:00,34.4,30.1,30.22,NNE,25,5.0,9.0,84,0.07,,,0.14,Wunderground v.1.15,2013-03-06 18:31:00,
2013-03-06 13:33:00,34.5,30.2,30.22,NNE,26,5.0,9.0,84,0.07,,,0.14,Wunderground v.1.15,2013-03-06 18:33:00,
2013-03-06 13:35:00,34.5,30.2,30.22,NE,34,6.0,9.0,84,0.07,,,0.14,Wunderground v.1.15,2013-03-06 18:35:00,
2013-03-06 13:36:00,34.5,30.2,30.22,NNE,23,6.0,9.0,84,0.07,,,0.14,Wunderground v.1.15,2013-03-06 18:36:00,
2013-03-06 13:39:00,34.4,30.1,30.22,NNE,25,6.0,9.0,84,0.07,,,0.15,Wunderground v.1.15,2013-03-06 18:39:00,
2013-03-06 13:40:00,34.4,30.1,30.22,NNE,20,5.0,8.0,84,0.07,,,0.15,Wunderground v.1.15,2013-03-06 18:40:00,
2013-03-06 13:41:00,34.4,30.1,30.22,NNE,24,6.0,8.0,84,0.07,,,0.15,Wunderground v.1.15,2013-03-06 18:41:00,
2013-03-06 13:44:00,34.4,30.1,30.22,NNE,25,4.0,8.0,84,0.07,,,0.15,Wunderground v.1.15,2013-03-06 18:44:00,
2013-03-06 13:46:00,34.4,30.1,30.22,NNE,24,3.0,8.0,84,0.07,,,0.15,Wunderground v.1.15,2013-03-06 18:46:00,
2013-03-06 13:49:00,34.4,30.4,30.22,NE,39,5.0,9.0,85,0.07,,,0.16,Wunderground v.1.15,2013-03-06 18:49:00,
2013-03-06 13:51:00,34.4,30.1,30.22,NNE,30,4.0,7.0,84,0.07,,,0.16,Wunderground v.1.15,2013-03-06 18:51:00,
2013-03-06 13:54:00,34.7,30.4,30.22,NNE,33,4.0,7.0,84,0.07,,,0.16,Wunderground v.1.15,2013-03-06 18:54:00,
2013-03-06 13:56:00,35.0,30.4,30.22,NE,46,7.0,7.0,83,0.07,,,0.16,Wunderground v.1.15,2013-03-06 18:56:00,
2013-03-06 13:57:00,35.0,30.4,30.22,NNE,26,7.0,10.0,83,0.07,,,0.16,Wunderground v.1.15,2013-03-06 18:57:00,
2013-03-06 13:59:00,35.1,30.5,30.22,NE,41,4.0,10.0,83,0.06,,,0.17,Wunderground v.1.15,2013-03-06 18:59:00,
2013-03-06 14:01:00,35.1,30.5,30.22,North,9,4.0,7.0,83,0.06,,,0.17,Wunderground v.1.15,2013-03-06 19:01:00,
2013-03-06 14:02:00,35.1,30.5,30.22,NE,42,5.0,7.0,83,0.06,,,0.17,Wunderground v.1.15,2013-03-06 19:02:00,
2013-03-06 14:04:00,35.1,30.5,30.22,NNE,18,2.0,7.0,83,0.06,,,0.17,Wunderground v.1.15,2013-03-06 19:04:00,
2013-03-06 14:07:00,35.0,30.4,30.22,NNE,26,7.0,9.0,83,0.07,,,0.18,Wunderground v.1.15,2013-03-06 19:07:00,
2013-03-06 14:08:00,35.1,30.5,30.22,NNE,16,3.0,10.0,83,0.07,,,0.18,Wunderground v.1.15,2013-03-06 19:08:00,
2013-03-06 14:10:00,35.0,30.4,30.22,NNE,20,4.0,10.0,83,0.07,,,0.18,Wunderground v.1.15,2013-03-06 19:10:00,
2013-03-06 14:12:00,35.0,30.4,30.22,NNE,26,3.0,6.0,83,0.07,,,0.18,Wunderground v.1.15,2013-03-06 19:12:00,
2013-03-06 14:13:00,35.0,30.4,30.22,NNE,23,4.0,6.0,83,0.09,,,0.18,Wunderground v.1.15,2013-03-06 19:13:00,
2013-03-06 14:15:00,35.0,30.7,30.22,NNE,28,4.0,6.0,84,0.09,,,0.19,Wunderground v.1.15,2013-03-06 19:15:00,
2013-03-06 14:18:00,35.0,30.7,30.22,NNE,25,5.0,6.0,84,0.09,,,0.19,Wunderground v.1.15,2013-03-06 19:18:00,
2013-03-06 14:19:00,35.0,30.7,30.22,NNE,26,5.0,6.0,84,0.09,,,0.19,Wunderground v.1.15,2013-03-06 19:19:00,
2013-03-06 14:21:00,34.9,30.6,30.22,NNE,26,5.0,5.0,84,0.07,,,0.19,Wunderground v.1.15,2013-03-06 19:21:00,
2013-03-06 14:23:00,34.8,30.5,30.22,NNE,29,5.0,7.0,84,0.07,,,0.20,Wunderground v.1.15,2013-03-06 19:23:00,
2013-03-06 14:24:00,34.8,30.5,30.22,NNE,24,5.0,9.0,84,0.07,,,0.20,Wunderground v.1.15,2013-03-06 19:24:00,
2013-03-06 14:26:00,34.9,30.6,30.22,NNE,30,5.0,9.0,84,0.07,,,0.20,Wunderground v.1.15,2013-03-06 19:26:00,
2013-03-06 14:28:00,34.9,30.6,30.22,NE,34,6.0,9.0,84,0.07,,,0.20,Wunderground v.1.15,2013-03-06 19:28:00,
2013-03-06 14:30:00,34.9,30.6,30.22,NNE,25,4.0,5.0,84,0.08,,,0.21,Wunderground v.1.15,2013-03-06 19:30:00,
2013-03-06 14:32:00,35.0,30.7,30.22,NNE,21,4.0,6.0,84,0.08,,,0.21,Wunderground v.1.15,2013-03-06 19:32:00,
2013-03-06 14:33:00,35.0,30.7,30.22,NNE,22,2.0,6.0,84,0.08,,,0.21,Wunderground v.1.15,2013-03-06 19:33:00,
2013-03-06 14:35:00,34.9,30.8,30.22,NNE,28,4.0,7.0,85,0.08,,,0.21,Wunderground v.1.15,2013-03-06 19:35:00,
2013-03-06 14:37:00,34.9,30.8,30.22,NNE,25,5.0,7.0,85,0.08,,,0.22,Wunderground v.1.15,2013-03-06 19:37:00,
2013-03-06 14:39:00,34.9,30.8,30.22,NNE,25,4.0,7.0,85,0.08,,,0.22,Wunderground v.1.15,2013-03-06 19:39:00,
2013-03-06 14:41:00,34.8,30.8,30.22,NNE,20,6.0,7.0,85,0.08,,,0.22,Wunderground v.1.15,2013-03-06 19:41:00,
2013-03-06 14:42:00,34.8,30.8,30.22,NNE,20,5.0,7.0,85,0.08,,,0.22,Wunderground v.1.15,2013-03-06 19:42:00,
2013-03-06 14:44:00,34.9,30.8,30.22,NNE,21,4.0,7.0,85,0.08,,,0.22,Wunderground v.1.15,2013-03-06 19:44:00,
2013-03-06 14:46:00,34.9,31.1,30.23,NNE,29,4.0,7.0,86,0.06,,,0.22,Wunderground v.1.15,2013-03-06 19:46:00,
2013-03-06 14:48:00,35.0,31.2,30.22,NNE,26,4.0,7.0,86,0.06,,,0.23,Wunderground v.1.15,2013-03-06 19:48:00,
2013-03-06 14:49:00,35.0,30.9,30.22,NNE,29,4.0,7.0,85,0.06,,,0.23,Wunderground v.1.15,2013-03-06 19:49:00,
2013-03-06 14:52:00,34.9,30.8,30.22,NNE,24,2.0,7.0,85,0.06,,,0.23,Wunderground v.1.15,2013-03-06 19:52:00,
2013-03-06 14:53:00,34.8,30.8,30.22,NNE,24,4.0,7.0,85,0.06,,,0.23,Wunderground v.1.15,2013-03-06 19:53:00,
2013-03-06 14:54:00,34.7,30.7,30.22,NNE,25,4.0,7.0,85,0.06,,,0.23,Wunderground v.1.15,2013-03-06 19:54:00,
2013-03-06 14:57:00,34.6,30.8,30.22,NNE,26,4.0,7.0,86,0.08,,,0.24,Wunderground v.1.15,2013-03-06 19:57:00,
2013-03-06 14:58:00,34.6,30.8,30.22,NNE,25,4.0,7.0,86,0.08,,,0.24,Wunderground v.1.15,2013-03-06 19:58:00,
2013-03-06 14:59:00,34.5,30.7,30.22,NNE,25,3.0,7.0,86,0.08,,,0.24,Wunderground v.1.15,2013-03-06 19:59:00,
2013-03-06 15:00:00,34.6,30.8,30.22,NNE,25,5.0,6.0,86,0.08,,,0.24,Wunderground v.1.15,2013-03-06 20:00:00,
2013-03-06 15:02:00,34.6,30.8,30.22,NNE,24,4.0,6.0,86,0.09,,,0.25,Wunderground v.1.15,2013-03-06 20:02:00,
2013-03-06 15:03:00,34.6,30.8,30.22,NNE,26,6.0,6.0,86,0.09,,,0.25,Wunderground v.1.15,2013-03-06 20:03:00,
2013-03-06 15:04:00,34.5,30.7,30.22,NNE,25,4.0,6.0,86,0.09,,,0.25,Wunderground v.1.15,2013-03-06 20:04:00,
2013-03-06 15:06:00,34.5,30.7,30.22,NNE,26,5.0,6.0,86,0.09,,,0.25,Wunderground v.1.15,2013-03-06 20:06:00,
2013-03-06 15:07:00,34.5,30.7,30.22,NNE,24,3.0,6.0,86,0.09,,,0.25,Wunderground v.1.15,2013-03-06 20:07:00,
2013-03-06 15:08:00,34.5,30.7,30.22,NNE,24,4.0,6.0,86,0.08,,,0.25,Wunderground v.1.15,2013-03-06 20:08:00,
2013-03-06 15:10:00,34.6,30.8,30.22,NNE,24,4.0,4.0,86,0.07,,,0.25,Wunderground v.1.15,2013-03-06 20:10:00,
2013-03-06 15:11:00,34.7,31.2,30.22,NNE,24,3.0,4.0,87,0.07,,,0.26,Wunderground v.1.15,2013-03-06 20:11:00,
2013-03-06 15:12:00,34.8,31.3,30.22,NNE,28,3.0,5.0,87,0.07,,,0.26,Wunderground v.1.15,2013-03-06 20:12:00,
2013-03-06 15:14:00,34.9,31.1,30.22,NNE,28,4.0,5.0,86,0.07,,,0.26,Wunderground v.1.15,2013-03-06 20:14:00,
2013-03-06 15:15:00,34.9,31.1,30.23,NNE,28,5.0,5.0,86,0.07,,,0.26,Wunderground v.1.15,2013-03-06 20:15:00,
2013-03-06 15:16:00,34.9,31.1,30.22,NNE,27,3.0,6.0,86,0.07,,,0.26,Wunderground v.1.15,2013-03-06 20:16:00,
2013-03-06 15:17:00,34.9,31.1,30.22,NNE,27,5.0,6.0,86,0.07,,,0.26,Wunderground v.1.15,2013-03-06 20:17:00,
2013-03-06 15:19:00,35.0,31.2,30.23,NNE,28,4.0,6.0,86,0.07,,,0.27,Wunderground v.1.15,2013-03-06 20:19:00,
2013-03-06 15:20:00,35.0,31.2,30.23,NNE,27,4.0,5.0,86,0.07,,,0.27,Wunderground v.1.15,2013-03-06 20:20:00,
2013-03-06 15:21:00,34.9,31.1,30.23,NNE,27,3.0,5.0,86,0.07,,,0.27,Wunderground v.1.15,2013-03-06 20:21:00,
2013-03-06 15:22:00,34.9,31.1,30.23,NNE,26,3.0,5.0,86,0.07,,,0.27,Wunderground v.1.15,2013-03-06 20:22:00,
2013-03-06 15:25:00,34.9,31.1,30.23,NNE,26,6.0,6.0,86,0.07,,,0.27,Wunderground v.1.15,2013-03-06 20:25:00,
2013-03-06 15:26:00,34.9,31.1,30.23,NNE,22,4.0,6.0,86,0.07,,,0.27,Wunderground v.1.15,2013-03-06 20:26:00,
2013-03-06 15:27:00,34.8,31.0,30.23,NNE,22,4.0,6.0,86,0.06,,,0.27,Wunderground v.1.15,2013-03-06 20:27:00,
2013-03-06 15:30:00,34.8,31.0,30.23,NNE,31,5.0,6.0,86,0.06,,,0.28,Wunderground v.1.15,2013-03-06 20:30:00,
2013-03-06 15:31:00,34.7,30.9,30.23,NNE,29,6.0,6.0,86,0.06,,,0.28,Wunderground v.1.15,2013-03-06 20:31:00,
2013-03-06 15:33:00,34.7,30.9,30.23,NE,49,3.0,6.0,86,0.06,,,0.28,Wunderground v.1.15,2013-03-06 20:33:00,
2013-03-06 15:35:00,34.6,30.8,30.23,ENE,60,5.0,7.0,86,0.06,,,0.28,Wunderground v.1.15,2013-03-06 20:35:00,
2013-03-06 15:37:00,34.6,30.8,30.23,NNE,29,5.0,7.0,86,0.06,,,0.28,Wunderground v.1.15,2013-03-06 20:37:00,
2013-03-06 15:38:00,34.5,30.7,30.23,NNE,30,3.0,7.0,86,0.06,,,0.28,Wunderground v.1.15,2013-03-06 20:38:00,
2013-03-06 15:40:00,34.4,30.6,30.24,NNE,15,4.0,5.0,86,0.06,,,0.29,Wunderground v.1.15,2013-03-06 20:40:00,
2013-03-06 15:41:00,34.4,30.6,30.24,NNE,15,4.0,5.0,86,0.06,,,0.29,Wunderground v.1.15,2013-03-06 20:41:00,
2013-03-06 15:42:00,34.4,30.6,30.24,NE,37,3.0,6.0,86,0.06,,,0.29,Wunderground v.1.15,2013-03-06 20:42:00,
2013-03-06 15:43:00,34.4,30.6,30.24,NNE,21,4.0,6.0,86,0.06,,,0.29,Wunderground v.1.15,2013-03-06 20:43:00,
2013-03-06 15:46:00,34.4,30.6,30.23,NNE,26,3.0,6.0,86,0.06,,,0.29,Wunderground v.1.15,2013-03-06 20:46:00,
2013-03-06 15:47:00,34.4,30.9,30.23,NNE,25,2.0,6.0,87,0.06,,,0.29,Wunderground v.1.15,2013-03-06 20:47:00,
2013-03-06 15:49:00,34.4,30.9,30.24,NNE,21,4.0,6.0,87,0.05,,,0.29,Wunderground v.1.15,2013-03-06 20:49:00,
2013-03-06 15:51:00,34.4,30.9,30.24,NE,35,4.0,5.0,87,0.05,,,0.30,Wunderground v.1.15,2013-03-06 20:51:00,
2013-03-06 15:53:00,34.4,30.9,30.24,NE,34,3.0,5.0,87,0.05,,,0.30,Wunderground v.1.15,2013-03-06 20:53:00,
2013-03-06 15:54:00,34.4,30.9,30.24,NE,34,4.0,5.0,87,0.05,,,0.30,Wunderground v.1.15,2013-03-06 20:54:00,
2013-03-06 15:56:00,34.4,30.9,30.24,NNE,31,5.0,5.0,87,0.05,,,0.30,Wunderground v.1.15,2013-03-06 20:56:00,
2013-03-06 15:57:00,34.3,30.8,30.24,NNE,31,2.0,5.0,87,0.05,,,0.30,Wunderground v.1.15,2013-03-06 20:57:00,
2013-03-06 15:59:00,34.3,30.8,30.24,NNE,31,4.0,5.0,87,0.05,,,0.30,Wunderground v.1.15,2013-03-06 20:59:00,
2013-03-06 16:02:00,34.3,31.1,30.24,NNE,30,3.0,5.0,88,0.05,,,0.31,Wunderground v.1.15,2013-03-06 21:02:00,
2013-03-06 16:03:00,34.3,31.1,30.24,NNE,30,4.0,5.0,88,0.05,,,0.31,Wunderground v.1.15,2013-03-06 21:03:00,
2013-03-06 16:04:00,34.4,31.2,30.24,NNE,31,3.0,5.0,88,0.05,,,0.31,Wunderground v.1.15,2013-03-06 21:04:00,
2013-03-06 16:05:00,34.3,31.1,30.24,NNE,30,4.0,5.0,88,0.05,,,0.31,Wunderground v.1.15,2013-03-06 21:05:00,
2013-03-06 16:07:00,34.3,31.1,30.24,NNE,31,4.0,5.0,88,0.05,,,0.31,Wunderground v.1.15,2013-03-06 21:07:00,
2013-03-06 16:08:00,34.3,31.1,30.24,NE,40,3.0,5.0,88,0.05,,,0.31,Wunderground v.1.15,2013-03-06 21:08:00,
2013-03-06 16:10:00,34.3,31.1,30.24,NE,40,4.0,4.0,88,0.05,,,0.31,Wunderground v.1.15,2013-03-06 21:10:00,
2013-03-06 16:12:00,34.3,31.1,30.24,NNE,32,2.0,6.0,88,0.05,,,0.31,Wunderground v.1.15,2013-03-06 21:12:00,
2013-03-06 16:13:00,34.3,31.1,30.24,NE,44,5.0,6.0,88,0.05,,,0.31,Wunderground v.1.15,2013-03-06 21:13:00,
2013-03-06 16:15:00,34.2,30.7,30.24,NNE,28,7.0,7.0,87,0.04,,,0.31,Wunderground v.1.15,2013-03-06 21:15:00,
2013-03-06 16:17:00,34.2,30.7,30.24,NE,40,5.0,10.0,87,0.04,,,0.32,Wunderground v.1.15,2013-03-06 21:17:00,
2013-03-06 16:19:00,34.2,30.7,30.24,North,355,3.0,10.0,87,0.04,,,0.32,Wunderground v.1.15,2013-03-06 21:19:00,
2013-03-06 16:21:00,34.2,30.7,30.24,NNE,18,2.0,9.0,87,0.04,,,0.32,Wunderground v.1.15,2013-03-06 21:21:00,
2013-03-06 16:22:00,34.2,30.7,30.24,NNE,19,2.0,9.0,87,0.04,,,0.32,Wunderground v.1.15,2013-03-06 21:22:00,
2013-03-06 16:23:00,34.2,30.7,30.24,NE,45,6.0,9.0,87,0.04,,,0.32,Wunderground v.1.15,2013-03-06 21:23:00,
2013-03-06 16:24:00,34.2,30.7,30.24,NNE,28,3.0,9.0,87,0.04,,,0.32,Wunderground v.1.15,2013-03-06 21:24:00,
2013-03-06 16:26:00,34.2,30.7,30.24,NE,34,5.0,9.0,87,0.04,,,0.32,Wunderground v.1.15,2013-03-06 21:26:00,
2013-03-06 16:28:00,34.2,30.7,30.24,NNE,25,5.0,9.0,87,0.04,,,0.32,Wunderground v.1.15,2013-03-06 21:28:00,
2013-03-06 16:30:00,34.2,30.7,30.24,NNE,33,4.0,6.0,87,0.04,,,0.32,Wunderground v.1.15,2013-03-06 21:30:00,
2013-03-06 16:31:00,34.2,30.7,30.24,NNE,26,3.0,7.0,87,0.04,,,0.32,Wunderground v.1.15,2013-03-06 21:31:00,
2013-03-06 16:33:00,34.1,30.6,30.24,NNE,24,4.0,7.0,87,0.04,,,0.32,Wunderground v.1.15,2013-03-06 21:33:00,
2013-03-06 16:35:00,34.0,30.5,30.24,NNE,19,6.0,7.0,87,0.00,,,0.33,Wunderground v.1.15,2013-03-06 21:35:00,
2013-03-06 16:36:00,34.0,30.8,30.24,NE,36,4.0,7.0,88,0.00,,,0.33,Wunderground v.1.15,2013-03-06 21:36:00,
2013-03-06 16:38:00,33.9,30.7,30.24,NNE,22,3.0,7.0,88,0.00,,,0.33,Wunderground v.1.15,2013-03-06 21:38:00,
2013-03-06 16:41:00,33.9,30.7,30.24,NE,34,4.0,6.0,88,0.00,,,0.33,Wunderground v.1.15,2013-03-06 21:41:00,
2013-03-06 16:43:00,33.8,30.6,30.24,NNE,27,3.0,6.0,88,0.00,,,0.33,Wunderground v.1.15,2013-03-06 21:43:00,
2013-03-06 16:44:00,33.8,30.6,30.24,NNE,16,2.0,6.0,88,0.00,,,0.33,Wunderground v.1.15,2013-03-06 21:44:00,
2013-03-06 16:46:00,33.7,30.5,30.24,NNE,31,3.0,6.0,88,0.00,,,0.33,Wunderground v.1.15,2013-03-06 21:46:00,
2013-03-06 16:47:00,33.8,30.9,30.25,NNE,28,5.0,6.0,89,0.00,,,0.33,Wunderground v.1.15,2013-03-06 21:47:00,
2013-03-06 16:48:00,33.7,30.8,30.24,NNE,25,3.0,6.0,89,0.00,,,0.33,Wunderground v.1.15,2013-03-06 21:48:00,
2013-03-06 16:49:00,33.7,30.8,30.24,NNE,26,5.0,6.0,89,0.00,,,0.33,Wunderground v.1.15,2013-03-06 21:49:00,
2013-03-06 16:51:00,33.7,30.8,30.25,NNE,20,3.0,5.0,89,0.00,,,0.33,Wunderground v.1.15,2013-03-06 21:51:00,
2013-03-06 16:52:00,33.6,30.7,30.25,NNE,22,3.0,5.0,89,0.00,,,0.33,Wunderground v.1.15,2013-03-06 21:52:00,
2013-03-06 16:54:00,33.6,30.7,30.25,NNE,23,3.0,5.0,89,0.00,,,0.33,Wunderground v.1.15,2013-03-06 21:54:00,
2013-03-06 16:56:00,33.5,30.6,30.25,NNE,14,5.0,5.0,89,0.00,,,0.33,Wunderground v.1.15,2013-03-06 21:56:00,
2013-03-06 16:57:00,33.4,30.8,30.25,NNE,14,5.0,5.0,90,0.00,,,0.33,Wunderground v.1.15,2013-03-06 21:57:00,
2013-03-06 16:59:00,33.4,30.8,30.25,NNE,14,5.0,6.0,90,0.00,,,0.33,Wunderground v.1.15,2013-03-06 21:59:00,
2013-03-06 17:01:00,33.4,30.8,30.25,North,9,6.0,9.0,90,0.00,,,0.33,Wunderground v.1.15,2013-03-06 22:01:00,
2013-03-06 17:02:00,33.3,30.7,30.25,North,9,6.0,9.0,90,0.00,,,0.34,Wunderground v.1.15,2013-03-06 22:02:00,
2013-03-06 17:05:00,33.3,31.0,30.25,North,9,6.0,9.0,91,0.00,,,0.34,Wunderground v.1.15,2013-03-06 22:05:00,
2013-03-06 17:06:00,33.2,30.9,30.25,North,9,5.0,9.0,91,0.00,,,0.34,Wunderground v.1.15,2013-03-06 22:06:00,
2013-03-06 17:08:00,33.2,30.9,30.25,North,9,6.0,9.0,91,0.00,,,0.34,Wunderground v.1.15,2013-03-06 22:08:00,
2013-03-06 17:10:00,33.2,30.9,30.25,North,9,7.0,9.0,91,0.00,,,0.34,Wunderground v.1.15,2013-03-06 22:10:00,
2013-03-06 17:11:00,33.2,30.9,30.25,North,9,7.0,9.0,91,0.00,,,0.34,Wunderground v.1.15,2013-03-06 22:11:00,
2013-03-06 17:12:00,33.2,30.9,30.25,North,9,8.0,10.0,91,0.00,,,0.34,Wunderground v.1.15,2013-03-06 22:12:00,
2013-03-06 17:13:00,33.1,30.8,30.25,North,9,7.0,10.0,91,0.00,,,0.34,Wunderground v.1.15,2013-03-06 22:13:00,
2013-03-06 17:15:00,33.1,30.8,30.25,North,9,6.0,10.0,91,0.00,,,0.34,Wunderground v.1.15,2013-03-06 22:15:00,
2013-03-06 17:16:00,33.1,30.8,30.25,North,9,7.0,10.0,91,0.00,,,0.34,Wunderground v.1.15,2013-03-06 22:16:00,
2013-03-06 17:17:00,33.1,30.8,30.25,North,9,7.0,10.0,91,0.00,,,0.34,Wunderground v.1.15,2013-03-06 22:17:00,
2013-03-06 17:19:00,33.0,30.9,30.25,North,9,5.0,10.0,92,0.00,,,0.34,Wunderground v.1.15,2013-03-06 22:19:00,
2013-03-06 17:20:00,33.0,30.9,30.25,North,11,5.0,6.0,92,0.00,,,0.34,Wunderground v.1.15,2013-03-06 22:20:00,
2013-03-06 17:22:00,33.0,30.9,30.25,North,10,6.0,6.0,92,0.00,,,0.34,Wunderground v.1.15,2013-03-06 22:22:00,
2013-03-06 17:24:00,33.0,30.9,30.25,North,10,5.0,7.0,92,0.00,,,0.34,Wunderground v.1.15,2013-03-06 22:24:00,
2013-03-06 17:26:00,33.0,30.9,30.25,North,9,6.0,7.0,92,0.00,,,0.34,Wunderground v.1.15,2013-03-06 22:26:00,
2013-03-06 17:27:00,33.0,30.9,30.25,North,9,5.0,7.0,92,0.00,,,0.34,Wunderground v.1.15,2013-03-06 22:27:00,
2013-03-06 17:29:00,33.0,30.9,30.25,North,9,5.0,7.0,92,0.00,,,0.34,Wunderground v.1.15,2013-03-06 22:29:00,
2013-03-06 17:31:00,33.0,30.9,30.25,North,9,4.0,6.0,92,0.00,,,0.34,Wunderground v.1.15,2013-03-06 22:31:00,
2013-03-06 17:32:00,33.0,30.9,30.25,North,9,4.0,6.0,92,0.00,,,0.34,Wunderground v.1.15,2013-03-06 22:32:00,
2013-03-06 17:33:00,33.0,30.9,30.25,North,9,4.0,6.0,92,0.00,,,0.34,Wunderground v.1.15,2013-03-06 22:33:00,
2013-03-06 17:34:00,33.0,30.9,30.25,North,9,4.0,6.0,92,0.00,,,0.34,Wunderground v.1.15,2013-03-06 22:34:00,
2013-03-06 17:36:00,33.0,31.2,30.25,North,9,5.0,6.0,93,0.00,,,0.34,Wunderground v.1.15,2013-03-06 22:36:00,
2013-03-06 17:38:00,33.0,31.2,30.26,North,9,5.0,6.0,93,0.00,,,0.34,Wunderground v.1.15,2013-03-06 22:38:00,
2013-03-06 17:40:00,32.9,30.8,30.26,North,9,5.0,5.0,92,0.00,,,0.35,Wunderground v.1.15,2013-03-06 22:40:00,
2013-03-06 17:42:00,32.9,31.1,30.26,North,9,5.0,6.0,93,0.00,,,0.35,Wunderground v.1.15,2013-03-06 22:42:00,
2013-03-06 17:43:00,32.9,31.1,30.26,North,9,5.0,6.0,93,0.00,,,0.35,Wunderground v.1.15,2013-03-06 22:43:00,
2013-03-06 17:44:00,32.9,31.1,30.26,North,9,5.0,6.0,93,0.00,,,0.35,Wunderground v.1.15,2013-03-06 22:44:00,
2013-03-06 17:47:00,32.9,31.1,30.26,North,9,5.0,7.0,93,0.00,,,0.35,Wunderground v.1.15,2013-03-06 22:47:00,
2013-03-06 17:49:00,32.9,31.1,30.26,North,9,7.0,7.0,93,0.00,,,0.35,Wunderground v.1.15,2013-03-06 22:49:00,
2013-03-06 17:50:00,32.9,31.1,30.26,North,9,6.0,6.0,93,0.00,,,0.35,Wunderground v.1.15,2013-03-06 22:50:00,
2013-03-06 17:52:00,32.9,31.1,30.26,North,9,5.0,7.0,93,0.00,,,0.35,Wunderground v.1.15,2013-03-06 22:52:00,
2013-03-06 17:54:00,32.9,31.1,30.26,North,9,6.0,7.0,93,0.00,,,0.35,Wunderground v.1.15,2013-03-06 22:54:00,
2013-03-06 17:55:00,32.9,31.1,30.26,North,9,7.0,7.0,93,0.00,,,0.35,Wunderground v.1.15,2013-03-06 22:55:00,
2013-03-06 17:58:00,32.8,31.0,30.26,North,9,6.0,7.0,93,0.00,,,0.35,Wunderground v.1.15,2013-03-06 22:58:00,
2013-03-06 17:59:00,32.8,31.0,30.26,North,9,7.0,7.0,93,0.00,,,0.35,Wunderground v.1.15,2013-03-06 22:59:00,
2013-03-06 18:00:00,32.8,31.0,30.26,North,9,6.0,7.0,93,0.00,,,0.35,Wunderground v.1.15,2013-03-06 23:00:00,
2013-03-06 18:03:00,32.8,31.0,30.26,North,9,8.0,8.0,93,0.00,,,0.35,Wunderground v.1.15,2013-03-06 23:03:00,
2013-03-06 18:04:00,32.9,31.1,30.26,North,9,6.0,8.0,93,0.00,,,0.35,Wunderground v.1.15,2013-03-06 23:04:00,
2013-03-06 18:05:00,32.9,31.1,30.26,North,9,6.0,8.0,93,0.00,,,0.35,Wunderground v.1.15,2013-03-06 23:05:00,
2013-03-06 18:06:00,32.9,31.1,30.26,North,9,5.0,8.0,93,0.00,,,0.35,Wunderground v.1.15,2013-03-06 23:06:00,
2013-03-06 18:08:00,32.8,31.0,30.26,North,9,5.0,8.0,93,0.00,,,0.35,Wunderground v.1.15,2013-03-06 23:08:00,
2013-03-06 18:10:00,32.9,31.1,30.26,North,9,5.0,6.0,93,0.00,,,0.35,Wunderground v.1.15,2013-03-06 23:10:00,
2013-03-06 18:11:00,32.9,31.1,30.26,North,9,6.0,6.0,93,0.00,,,0.35,Wunderground v.1.15,2013-03-06 23:11:00,
2013-03-06 18:14:00,32.8,31.0,30.27,North,9,4.0,6.0,93,0.00,,,0.35,Wunderground v.1.15,2013-03-06 23:14:00,
2013-03-06 18:15:00,32.8,31.0,30.27,North,9,5.0,6.0,93,0.00,,,0.35,Wunderground v.1.15,2013-03-06 23:15:00,
2013-03-06 18:16:00,32.8,31.0,30.27,North,9,5.0,6.0,93,0.00,,,0.35,Wunderground v.1.15,2013-03-06 23:16:00,
2013-03-06 18:19:00,32.8,31.0,30.27,North,9,4.0,6.0,93,0.00,,,0.35,Wunderground v.1.15,2013-03-06 23:19:00,
2013-03-06 18:20:00,32.8,31.0,30.26,North,9,4.0,5.0,93,0.00,,,0.35,Wunderground v.1.15,2013-03-06 23:20:00,
2013-03-06 18:21:00,32.8,31.0,30.27,North,9,5.0,5.0,93,0.00,,,0.35,Wunderground v.1.15,2013-03-06 23:21:00,
2013-03-06 18:24:00,32.8,31.0,30.27,North,9,3.0,5.0,93,0.00,,,0.35,Wunderground v.1.15,2013-03-06 23:24:00,
2013-03-06 18:26:00,32.8,31.0,30.27,North,9,4.0,5.0,93,0.00,,,0.35,Wunderground v.1.15,2013-03-06 23:26:00,
2013-03-06 18:27:00,32.8,31.0,30.27,North,9,4.0,6.0,93,0.00,,,0.35,Wunderground v.1.15,2013-03-06 23:27:00,
2013-03-06 18:30:00,32.8,31.0,30.27,North,11,4.0,4.0,93,0.00,,,0.35,Wunderground v.1.15,2013-03-06 23:30:00,
2013-03-06 18:31:00,32.8,31.0,30.27,North,11,3.0,4.0,93,0.00,,,0.35,Wunderground v.1.15,2013-03-06 23:31:00,
2013-03-06 18:32:00,32.8,31.0,30.27,North,11,3.0,4.0,93,0.00,,,0.35,Wunderground v.1.15,2013-03-06 23:32:00,
2013-03-06 18:35:00,32.9,31.1,30.27,North,11,6.0,7.0,93,0.00,,,0.35,Wunderground v.1.15,2013-03-06 23:35:00,
2013-03-06 18:36:00,32.9,31.1,30.27,North,11,7.0,7.0,93,0.00,,,0.35,Wunderground v.1.15,2013-03-06 23:36:00,
2013-03-06 18:37:00,32.9,31.1,30.27,North,11,7.0,7.0,93,0.00,,,0.35,Wunderground v.1.15,2013-03-06 23:37:00,
2013-03-06 18:38:00,32.8,31.0,30.27,North,11,6.0,7.0,93,0.00,,,0.35,Wunderground v.1.15,2013-03-06 23:38:00,
2013-03-06 18:41:00,32.9,31.1,30.27,North,10,6.0,7.0,93,0.00,,,0.35,Wunderground v.1.15,2013-03-06 23:41:00,
2013-03-06 18:42:00,32.8,31.0,30.27,North,10,6.0,7.0,93,0.00,,,0.35,Wunderground v.1.15,2013-03-06 23:42:00,
2013-03-06 18:43:00,32.8,31.0,30.27,North,10,4.0,7.0,93,0.00,,,0.35,Wunderground v.1.15,2013-03-06 23:43:00,
2013-03-06 18:46:00,32.8,31.0,30.27,North,10,6.0,7.0,93,0.00,,,0.35,Wunderground v.1.15,2013-03-06 23:46:00,
2013-03-06 18:47:00,32.8,31.0,30.27,North,9,5.0,7.0,93,0.00,,,0.35,Wunderground v.1.15,2013-03-06 23:47:00,
2013-03-06 18:48:00,32.8,31.0,30.27,North,9,5.0,7.0,93,0.00,,,0.35,Wunderground v.1.15,2013-03-06 23:48:00,
2013-03-06 18:50:00,32.8,31.0,30.27,North,9,4.0,6.0,93,0.00,,,0.35,Wunderground v.1.15,2013-03-06 23:50:00,
2013-03-06 18:52:00,32.8,31.0,30.27,North,9,5.0,6.0,93,0.00,,,0.35,Wunderground v.1.15,2013-03-06 23:52:00,
2013-03-06 18:53:00,32.8,31.0,30.27,North,9,4.0,6.0,93,0.00,,,0.35,Wunderground v.1.15,2013-03-06 23:53:00,
2013-03-06 18:56:00,32.7,30.9,30.27,North,9,4.0,6.0,93,0.00,,,0.35,Wunderground v.1.15,2013-03-06 23:56:00,
2013-03-06 18:57:00,32.8,31.0,30.27,North,9,4.0,6.0,93,0.00,,,0.35,Wunderground v.1.15,2013-03-06 23:57:00,
2013-03-06 18:58:00,32.7,30.9,30.27,North,9,4.0,6.0,93,0.00,,,0.35,Wunderground v.1.15,2013-03-06 23:58:00,
2013-03-06 19:01:00,32.7,30.9,30.27,North,9,6.0,6.0,93,0.00,,,0.35,Wunderground v.1.15,2013-03-07 00:01:00,
2013-03-06 19:02:00,32.7,30.9,30.27,North,9,5.0,6.0,93,0.00,,,0.35,Wunderground v.1.15,2013-03-07 00:02:00,
2013-03-06 19:03:00,32.7,30.9,30.27,North,9,7.0,7.0,93,0.00,,,0.35,Wunderground v.1.15,2013-03-07 00:03:00,
2013-03-06 19:06:00,32.7,30.9,30.27,North,349,6.0,7.0,93,0.00,,,0.35,Wunderground v.1.15,2013-03-07 00:06:00,
2013-03-06 19:07:00,32.7,30.9,30.27,North,349,8.0,9.0,93,0.00,,,0.35,Wunderground v.1.15,2013-03-07 00:07:00,
2013-03-06 19:08:00,32.6,30.8,30.27,North,355,6.0,9.0,93,0.00,,,0.36,Wunderground v.1.15,2013-03-07 00:08:00,
2013-03-06 19:11:00,32.6,31.1,30.27,North,360,6.0,8.0,94,0.00,,,0.36,Wunderground v.1.15,2013-03-07 00:11:00,
2013-03-06 19:12:00,32.6,31.1,30.27,North,360,6.0,9.0,94,0.00,,,0.36,Wunderground v.1.15,2013-03-07 00:12:00,
2013-03-06 19:13:00,32.6,31.1,30.28,North,9,7.0,9.0,94,0.00,,,0.36,Wunderground v.1.15,2013-03-07 00:13:00,
2013-03-06 19:14:00,32.6,31.1,30.28,North,9,6.0,9.0,94,0.00,,,0.36,Wunderground v.1.15,2013-03-07 00:14:00,
2013-03-06 19:16:00,32.6,31.1,30.28,North,9,7.0,9.0,94,0.00,,,0.36,Wunderground v.1.15,2013-03-07 00:16:00,
2013-03-06 19:17:00,32.6,31.1,30.28,North,9,6.0,9.0,94,0.00,,,0.36,Wunderground v.1.15,2013-03-07 00:17:00,
2013-03-06 19:19:00,32.6,31.1,30.28,North,360,10.0,10.0,94,0.00,,,0.36,Wunderground v.1.15,2013-03-07 00:19:00,
2013-03-06 19:21:00,32.6,31.1,30.28,North,360,7.0,10.0,94,0.00,,,0.36,Wunderground v.1.15,2013-03-07 00:21:00,
2013-03-06 19:22:00,32.6,31.1,30.28,North,360,9.0,10.0,94,0.00,,,0.36,Wunderground v.1.15,2013-03-07 00:22:00,
2013-03-06 19:24:00,32.6,31.1,30.28,North,360,9.0,10.0,94,0.00,,,0.36,Wunderground v.1.15,2013-03-07 00:24:00,
2013-03-06 19:26:00,32.6,31.1,30.28,North,360,11.0,11.0,94,0.00,,,0.36,Wunderground v.1.15,2013-03-07 00:26:00,
2013-03-06 19:27:00,32.6,31.1,30.28,North,360,10.0,12.0,94,0.00,,,0.36,Wunderground v.1.15,2013-03-07 00:27:00,
2013-03-06 19:29:00,32.6,31.1,30.28,North,9,12.0,12.0,94,0.00,,,0.36,Wunderground v.1.15,2013-03-07 00:29:00,
2013-03-06 19:31:00,32.5,31.2,30.28,North,9,11.0,11.0,95,0.00,,,0.36,Wunderground v.1.15,2013-03-07 00:31:00,
2013-03-06 19:33:00,32.6,31.3,30.28,North,360,11.0,12.0,95,0.00,,,0.36,Wunderground v.1.15,2013-03-07 00:33:00,
2013-03-06 19:34:00,32.6,31.3,30.28,North,360,10.0,12.0,95,0.00,,,0.36,Wunderground v.1.15,2013-03-07 00:34:00,
2013-03-06 19:37:00,32.6,31.3,30.28,North,360,9.0,12.0,95,0.00,,,0.36,Wunderground v.1.15,2013-03-07 00:37:00,
2013-03-06 19:38:00,32.6,31.3,30.28,North,360,11.0,12.0,95,0.00,,,0.36,Wunderground v.1.15,2013-03-07 00:38:00,
2013-03-06 19:39:00,32.6,31.3,30.28,North,360,10.0,12.0,95,0.00,,,0.36,Wunderground v.1.15,2013-03-07 00:39:00,
2013-03-06 19:42:00,32.6,31.3,30.28,North,350,10.0,12.0,95,0.00,,,0.36,Wunderground v.1.15,2013-03-07 00:42:00,
2013-03-06 19:43:00,32.6,31.3,30.28,North,355,10.0,12.0,95,0.00,,,0.36,Wunderground v.1.15,2013-03-07 00:43:00,
2013-03-06 19:45:00,32.6,31.3,30.28,North,360,9.0,12.0,95,0.00,,,0.36,Wunderground v.1.15,2013-03-07 00:45:00,
2013-03-06 19:47:00,32.6,31.3,30.28,North,355,11.0,12.0,95,0.00,,,0.36,Wunderground v.1.15,2013-03-07 00:47:00,
2013-03-06 19:48:00,32.6,31.3,30.28,North,355,11.0,12.0,95,0.00,,,0.36,Wunderground v.1.15,2013-03-07 00:48:00,
2013-03-06 19:50:00,32.6,31.3,30.28,NNW,347,9.0,10.0,95,0.00,,,0.36,Wunderground v.1.15,2013-03-07 00:50:00,
2013-03-06 19:53:00,32.6,31.3,30.28,NNW,348,8.0,11.0,95,0.00,,,0.36,Wunderground v.1.15,2013-03-07 00:53:00,
2013-03-06 19:55:00,32.6,31.3,30.28,NNW,348,7.0,11.0,95,0.00,,,0.36,Wunderground v.1.15,2013-03-07 00:55:00,
2013-03-06 19:56:00,32.6,31.3,30.28,North,355,8.0,11.0,95,0.00,,,0.36,Wunderground v.1.15,2013-03-07 00:56:00,
2013-03-06 19:58:00,32.5,31.2,30.28,North,360,8.0,11.0,95,0.00,,,0.36,Wunderground v.1.15,2013-03-07 00:58:00,
2013-03-06 20:00:00,32.5,31.2,30.28,North,360,9.0,10.0,95,0.00,,,0.36,Wunderground v.1.15,2013-03-07 01:00:00,
2013-03-06 20:01:00,32.5,31.2,30.28,North,360,10.0,11.0,95,0.00,,,0.36,Wunderground v.1.15,2013-03-07 01:01:00,
2013-03-06 20:04:00,32.6,31.3,30.28,North,360,11.0,12.0,95,0.00,,,0.36,Wunderground v.1.15,2013-03-07 01:04:00,
2013-03-06 20:06:00,32.6,31.3,30.28,North,355,10.0,13.0,95,0.00,,,0.36,Wunderground v.1.15,2013-03-07 01:06:00,
2013-03-06 20:07:00,32.6,31.3,30.28,North,355,10.0,13.0,95,0.00,,,0.36,Wunderground v.1.15,2013-03-07 01:07:00,
2013-03-06 20:09:00,32.5,31.2,30.28,North,355,12.0,13.0,95,0.00,,,0.36,Wunderground v.1.15,2013-03-07 01:09:00,
2013-03-06 20:11:00,32.4,31.1,30.28,North,9,13.0,14.0,95,0.00,,,0.36,Wunderground v.1.15,2013-03-07 01:11:00,
2013-03-06 20:12:00,32.4,31.1,30.28,North,360,12.0,14.0,95,0.00,,,0.36,Wunderground v.1.15,2013-03-07 01:12:00,
2013-03-06 20:14:00,32.3,31.0,30.28,North,355,10.0,14.0,95,0.00,,,0.36,Wunderground v.1.15,2013-03-07 01:14:00,
2013-03-06 20:15:00,32.2,30.9,30.28,North,9,11.0,14.0,95,0.00,,,0.36,Wunderground v.1.15,2013-03-07 01:15:00,
2013-03-06 20:16:00,32.2,30.9,30.28,North,355,9.0,14.0,95,0.00,,,0.36,Wunderground v.1.15,2013-03-07 01:16:00,
2013-03-06 20:17:00,32.2,30.9,30.28,North,355,11.0,14.0,95,0.00,,,0.36,Wunderground v.1.15,2013-03-07 01:17:00,
2013-03-06 20:20:00,32.1,31.1,30.28,North,355,9.0,11.0,96,0.00,,,0.36,Wunderground v.1.15,2013-03-07 01:20:00,
2013-03-06 20:22:00,32.1,31.1,30.28,North,355,10.0,11.0,96,0.00,,,0.36,Wunderground v.1.15,2013-03-07 01:22:00,
2013-03-06 20:25:00,32.1,31.1,30.28,North,355,9.0,11.0,96,0.00,,,0.36,Wunderground v.1.15,2013-03-07 01:25:00,
2013-03-06 20:27:00,32.2,31.2,30.28,North,360,10.0,11.0,96,0.00,,,0.36,Wunderground v.1.15,2013-03-07 01:27:00,
2013-03-06 20:30:00,32.2,31.2,30.28,North,355,9.0,10.0,96,0.00,,,0.36,Wunderground v.1.15,2013-03-07 01:30:00,
2013-03-06 20:31:00,32.2,31.2,30.28,North,355,11.0,11.0,96,0.00,,,0.36,Wunderground v.1.15,2013-03-07 01:31:00,
2013-03-06 20:33:00,32.2,31.2,30.28,NNW,348,9.0,11.0,96,0.00,,,0.36,Wunderground v.1.15,2013-03-07 01:33:00,
2013-03-06 20:35:00,32.2,31.2,30.29,North,5,13.0,15.0,96,0.00,,,0.36,Wunderground v.1.15,2013-03-07 01:35:00,
2013-03-06 20:36:00,32.2,31.2,30.28,North,355,12.0,15.0,96,0.00,,,0.36,Wunderground v.1.15,2013-03-07 01:36:00,
2013-03-06 20:38:00,32.2,31.2,30.29,North,360,15.0,16.0,96,0.00,,,0.36,Wunderground v.1.15,2013-03-07 01:38:00,
2013-03-06 20:39:00,32.1,31.1,30.29,North,360,15.0,16.0,96,0.00,,,0.36,Wunderground v.1.15,2013-03-07 01:39:00,
2013-03-06 20:40:00,32.1,31.1,30.29,North,350,15.0,15.0,96,0.00,,,0.36,Wunderground v.1.15,2013-03-07 01:40:00,
2013-03-06 20:41:00,32.1,31.1,30.29,North,355,14.0,15.0,96,0.00,,,0.36,Wunderground v.1.15,2013-03-07 01:41:00,
2013-03-06 20:44:00,32.1,31.1,30.29,North,355,14.0,16.0,96,0.00,,,0.36,Wunderground v.1.15,2013-03-07 01:44:00,
2013-03-06 20:46:00,32.1,31.1,30.29,North,360,13.0,16.0,96,0.00,,,0.36,Wunderground v.1.15,2013-03-07 01:46:00,
2013-03-06 20:49:00,32.2,31.2,30.29,North,9,14.0,16.0,96,0.00,,,0.36,Wunderground v.1.15,2013-03-07 01:49:00,
2013-03-06 20:51:00,32.2,31.2,30.29,North,9,12.0,16.0,96,0.00,,,0.36,Wunderground v.1.15,2013-03-07 01:51:00,
2013-03-06 20:54:00,32.2,31.2,30.29,North,9,14.0,16.0,96,0.00,,,0.36,Wunderground v.1.15,2013-03-07 01:54:00,
2013-03-06 20:56:00,32.2,31.2,30.29,North,5,15.0,16.0,96,0.00,,,0.36,Wunderground v.1.15,2013-03-07 01:56:00,
2013-03-06 20:58:00,32.3,31.3,30.30,North,11,13.0,16.0,96,0.00,,,0.36,Wunderground v.1.15,2013-03-07 01:58:00,
2013-03-06 20:59:00,32.3,31.3,30.30,NNE,13,15.0,16.0,96,0.00,,,0.36,Wunderground v.1.15,2013-03-07 01:59:00,
2013-03-06 21:01:00,32.4,31.4,30.30,North,9,17.0,18.0,96,0.00,,,0.36,Wunderground v.1.15,2013-03-07 02:01:00,
2013-03-06 21:04:00,32.4,31.4,30.29,North,9,15.0,18.0,96,0.00,,,0.36,Wunderground v.1.15,2013-03-07 02:04:00,
2013-03-06 21:07:00,32.4,31.4,30.29,North,9,14.0,18.0,96,0.00,,,0.36,Wunderground v.1.15,2013-03-07 02:07:00,
2013-03-06 21:09:00,32.3,31.3,30.29,North,11,11.0,18.0,96,0.00,,,0.36,Wunderground v.1.15,2013-03-07 02:09:00,
2013-03-06 21:10:00,32.3,31.3,30.30,North,9,13.0,14.0,96,0.00,,,0.36,Wunderground v.1.15,2013-03-07 02:10:00,
2013-03-06 21:12:00,32.3,31.3,30.30,NNE,13,12.0,16.0,96,0.00,,,0.36,Wunderground v.1.15,2013-03-07 02:12:00,
2013-03-06 21:14:00,32.4,31.4,30.30,North,9,11.0,18.0,96,0.00,,,0.36,Wunderground v.1.15,2013-03-07 02:14:00,
2013-03-06 21:15:00,32.4,31.4,30.30,North,360,12.0,18.0,96,0.00,,,0.36,Wunderground v.1.15,2013-03-07 02:15:00,
2013-03-06 21:17:00,32.3,31.3,30.30,NNE,13,10.0,18.0,96,0.00,,,0.36,Wunderground v.1.15,2013-03-07 02:17:00,
2013-03-06 21:19:00,32.3,31.3,30.30,North,9,12.0,18.0,96,0.00,,,0.36,Wunderground v.1.15,2013-03-07 02:19:00,
2013-03-06 21:20:00,32.3,31.3,30.30,NNE,12,10.0,12.0,96,0.00,,,0.36,Wunderground v.1.15,2013-03-07 02:20:00,
2013-03-06 21:22:00,32.2,31.2,30.30,NNE,15,12.0,14.0,96,0.00,,,0.36,Wunderground v.1.15,2013-03-07 02:22:00,
2013-03-06 21:24:00,32.3,31.3,30.30,North,11,12.0,16.0,96,0.00,,,0.36,Wunderground v.1.15,2013-03-07 02:24:00,
2013-03-06 21:25:00,32.3,31.3,30.30,NNE,15,13.0,16.0,96,0.00,,,0.36,Wunderground v.1.15,2013-03-07 02:25:00,
2013-03-06 21:28:00,32.3,31.3,30.30,North,9,12.0,16.0,96,0.00,,,0.37,Wunderground v.1.15,2013-03-07 02:28:00,
2013-03-06 21:29:00,32.3,31.3,30.30,North,9,13.0,16.0,96,0.00,,,0.37,Wunderground v.1.15,2013-03-07 02:29:00,
2013-03-06 21:30:00,32.3,31.3,30.30,North,360,14.0,16.0,96,0.00,,,0.37,Wunderground v.1.15,2013-03-07 02:30:00,
2013-03-06 21:33:00,32.3,31.3,30.30,North,360,14.0,16.0,96,0.00,,,0.37,Wunderground v.1.15,2013-03-07 02:33:00,
2013-03-06 21:34:00,32.3,31.3,30.30,North,9,14.0,16.0,96,0.00,,,0.37,Wunderground v.1.15,2013-03-07 02:34:00,
2013-03-06 21:35:00,32.3,31.3,30.30,North,9,13.0,16.0,96,0.00,,,0.37,Wunderground v.1.15,2013-03-07 02:35:00,
2013-03-06 21:38:00,32.3,31.3,30.30,NNE,12,10.0,17.0,96,0.00,,,0.37,Wunderground v.1.15,2013-03-07 02:38:00,
2013-03-06 21:39:00,32.4,31.4,30.30,North,9,14.0,17.0,96,0.00,,,0.37,Wunderground v.1.15,2013-03-07 02:39:00,
2013-03-06 21:40:00,32.4,31.4,30.30,NNE,15,11.0,13.0,96,0.00,,,0.37,Wunderground v.1.15,2013-03-07 02:40:00,
2013-03-06 21:43:00,32.4,31.6,30.30,NNE,13,13.0,15.0,97,0.00,,,0.37,Wunderground v.1.15,2013-03-07 02:43:00,
2013-03-06 21:44:00,32.4,31.4,30.30,North,9,14.0,16.0,96,0.00,,,0.37,Wunderground v.1.15,2013-03-07 02:44:00,
2013-03-06 21:45:00,32.3,31.3,30.30,North,9,15.0,16.0,96,0.00,,,0.37,Wunderground v.1.15,2013-03-07 02:45:00,
2013-03-06 21:46:00,32.3,31.3,30.30,North,9,13.0,17.0,96,0.00,,,0.37,Wunderground v.1.15,2013-03-07 02:46:00,
2013-03-06 21:48:00,32.3,31.3,30.30,North,10,12.0,17.0,96,0.00,,,0.37,Wunderground v.1.15,2013-03-07 02:48:00,
2013-03-06 21:49:00,32.3,31.3,30.30,North,9,13.0,17.0,96,0.00,,,0.37,Wunderground v.1.15,2013-03-07 02:49:00,
2013-03-06 21:50:00,32.3,31.3,30.30,North,9,12.0,13.0,96,0.00,,,0.37,Wunderground v.1.15,2013-03-07 02:50:00,
2013-03-06 21:51:00,32.3,31.3,30.30,North,9,10.0,13.0,96,0.00,,,0.37,Wunderground v.1.15,2013-03-07 02:51:00,
2013-03-06 21:53:00,32.3,31.3,30.30,North,360,13.0,14.0,96,0.00,,,0.37,Wunderground v.1.15,2013-03-07 02:53:00,
2013-03-06 21:54:00,32.3,31.3,30.30,North,355,13.0,14.0,96,0.00,,,0.37,Wunderground v.1.15,2013-03-07 02:54:00,
2013-03-06 21:55:00,32.3,31.3,30.30,North,9,13.0,16.0,96,0.00,,,0.37,Wunderground v.1.15,2013-03-07 02:55:00,
2013-03-06 21:56:00,32.3,31.3,30.30,North,360,14.0,16.0,96,0.00,,,0.37,Wunderground v.1.15,2013-03-07 02:56:00,
2013-03-06 21:58:00,32.3,31.3,30.30,North,9,11.0,16.0,96,0.00,,,0.37,Wunderground v.1.15,2013-03-07 02:58:00,
2013-03-06 21:59:00,32.3,31.3,30.29,North,9,13.0,16.0,96,0.00,,,0.37,Wunderground v.1.15,2013-03-07 02:59:00,
2013-03-06 22:01:00,32.3,31.3,30.30,North,11,15.0,16.0,96,0.00,,,0.37,Wunderground v.1.15,2013-03-07 03:01:00,
2013-03-06 22:02:00,32.3,31.3,30.30,NNE,13,14.0,16.0,96,0.00,,,0.37,Wunderground v.1.15,2013-03-07 03:02:00,
2013-03-06 22:04:00,32.3,31.3,30.30,NNE,13,11.0,16.0,96,0.00,,,0.37,Wunderground v.1.15,2013-03-07 03:04:00,
2013-03-06 22:05:00,32.3,31.3,30.29,NNE,13,11.0,16.0,96,0.00,,,0.37,Wunderground v.1.15,2013-03-07 03:05:00,
2013-03-06 22:06:00,32.3,31.3,30.29,NNE,18,12.0,16.0,96,0.00,,,0.37,Wunderground v.1.15,2013-03-07 03:06:00,
2013-03-06 22:07:00,32.3,31.3,30.29,North,360,16.0,17.0,96,0.00,,,0.37,Wunderground v.1.15,2013-03-07 03:07:00,
2013-03-06 22:09:00,32.2,31.2,30.29,North,11,16.0,19.0,96,0.00,,,0.37,Wunderground v.1.15,2013-03-07 03:09:00,
2013-03-06 22:10:00,32.2,31.2,30.29,North,11,18.0,18.0,96,0.00,,,0.37,Wunderground v.1.15,2013-03-07 03:10:00,
2013-03-06 22:11:00,32.2,31.2,30.29,NNE,17,15.0,18.0,96,0.00,,,0.37,Wunderground v.1.15,2013-03-07 03:11:00,
2013-03-06 22:12:00,32.1,31.3,30.29,North,9,16.0,18.0,97,0.00,,,0.37,Wunderground v.1.15,2013-03-07 03:12:00,
2013-03-06 22:15:00,32.0,31.2,30.29,North,11,13.0,18.0,97,0.00,,,0.37,Wunderground v.1.15,2013-03-07 03:15:00,
2013-03-06 22:16:00,32.0,31.2,30.29,North,9,16.0,18.0,97,0.00,,,0.37,Wunderground v.1.15,2013-03-07 03:16:00,
2013-03-06 22:17:00,32.0,31.2,30.29,North,9,17.0,18.0,97,0.00,,,0.37,Wunderground v.1.15,2013-03-07 03:17:00,
2013-03-06 22:20:00,31.9,31.1,30.29,North,9,15.0,18.0,97,0.00,,,0.37,Wunderground v.1.15,2013-03-07 03:20:00,
2013-03-06 22:21:00,31.9,31.1,30.29,North,9,14.0,18.0,97,0.00,,,0.37,Wunderground v.1.15,2013-03-07 03:21:00,
2013-03-06 22:22:00,31.9,31.1,30.29,North,9,15.0,19.0,97,0.00,,,0.37,Wunderground v.1.15,2013-03-07 03:22:00,
2013-03-06 22:23:00,31.9,31.1,30.29,North,9,15.0,19.0,97,0.00,,,0.37,Wunderground v.1.15,2013-03-07 03:23:00,
2013-03-06 22:25:00,31.8,31.0,30.29,North,11,16.0,19.0,97,0.00,,,0.37,Wunderground v.1.15,2013-03-07 03:25:00,
2013-03-06 22:26:00,31.8,31.0,30.29,North,355,15.0,19.0,97,0.00,,,0.37,Wunderground v.1.15,2013-03-07 03:26:00,
2013-03-06 22:27:00,31.8,31.0,30.29,North,355,15.0,19.0,97,0.00,,,0.37,Wunderground v.1.15,2013-03-07 03:27:00,
2013-03-06 22:28:00,31.8,31.0,30.30,North,9,13.0,19.0,97,0.00,,,0.37,Wunderground v.1.15,2013-03-07 03:28:00,
2013-03-06 22:30:00,31.9,31.1,30.30,North,9,14.0,16.0,97,0.00,,,0.37,Wunderground v.1.15,2013-03-07 03:30:00,
2013-03-06 22:31:00,31.9,31.1,30.30,North,360,13.0,16.0,97,0.00,,,0.37,Wunderground v.1.15,2013-03-07 03:31:00,
2013-03-06 22:32:00,31.9,31.1,30.30,North,360,13.0,16.0,97,0.00,,,0.37,Wunderground v.1.15,2013-03-07 03:32:00,
2013-03-06 22:34:00,31.9,31.1,30.30,NNW,346,13.0,16.0,97,0.00,,,0.37,Wunderground v.1.15,2013-03-07 03:34:00,
2013-03-06 22:36:00,31.9,31.1,30.30,North,355,12.0,16.0,97,0.00,,,0.37,Wunderground v.1.15,2013-03-07 03:36:00,
2013-03-06 22:37:00,31.8,31.0,30.30,North,9,13.0,16.0,97,0.00,,,0.37,Wunderground v.1.15,2013-03-07 03:37:00,
2013-03-06 22:39:00,31.9,31.1,30.30,North,349,13.0,16.0,97,0.00,,,0.37,Wunderground v.1.15,2013-03-07 03:39:00,
2013-03-06 22:42:00,31.9,31.1,30.30,North,350,13.0,15.0,97,0.00,,,0.37,Wunderground v.1.15,2013-03-07 03:42:00,
2013-03-06 22:45:00,31.9,31.1,30.30,NNE,13,13.0,16.0,97,0.00,,,0.37,Wunderground v.1.15,2013-03-07 03:45:00,
2013-03-06 22:47:00,31.9,31.1,30.30,North,11,16.0,16.0,97,0.00,,,0.37,Wunderground v.1.15,2013-03-07 03:47:00,
2013-03-06 22:48:00,31.9,31.1,30.30,North,9,16.0,18.0,97,0.00,,,0.37,Wunderground v.1.15,2013-03-07 03:48:00,
2013-03-06 22:50:00,32.0,31.2,30.30,NNE,13,13.0,13.0,97,0.00,,,0.37,Wunderground v.1.15,2013-03-07 03:50:00,
2013-03-06 22:52:00,32.0,31.2,30.30,NNE,14,11.0,16.0,97,0.00,,,0.37,Wunderground v.1.15,2013-03-07 03:52:00,
2013-03-06 22:53:00,32.0,31.2,30.30,North,11,15.0,16.0,97,0.00,,,0.37,Wunderground v.1.15,2013-03-07 03:53:00,
2013-03-06 22:55:00,32.0,31.2,30.30,North,11,13.0,16.0,97,0.00,,,0.37,Wunderground v.1.15,2013-03-07 03:55:00,
2013-03-06 22:57:00,32.0,31.2,30.30,NNE,13,12.0,17.0,97,0.00,,,0.37,Wunderground v.1.15,2013-03-07 03:57:00,
2013-03-06 22:59:00,32.0,31.2,30.30,NNE,17,14.0,18.0,97,0.00,,,0.37,Wunderground v.1.15,2013-03-07 03:59:00,
2013-03-06 23:01:00,32.0,31.0,30.30,North,9,13.0,16.0,96,0.00,,,0.37,Wunderground v.1.15,2013-03-07 04:01:00,
2013-03-06 23:02:00,32.0,31.0,30.30,NNE,13,12.0,18.0,96,0.00,,,0.37,Wunderground v.1.15,2013-03-07 04:02:00,
2013-03-06 23:04:00,32.0,31.0,30.30,North,9,16.0,18.0,96,0.00,,,0.37,Wunderground v.1.15,2013-03-07 04:04:00,
2013-03-06 23:06:00,32.0,31.0,30.30,North,10,12.0,18.0,96,0.00,,,0.37,Wunderground v.1.15,2013-03-07 04:06:00,
2013-03-06 23:07:00,32.0,31.2,30.30,North,10,13.0,18.0,97,0.00,,,0.37,Wunderground v.1.15,2013-03-07 04:07:00,
2013-03-06 23:09:00,32.0,31.2,30.30,NNE,19,14.0,18.0,97,0.00,,,0.37,Wunderground v.1.15,2013-03-07 04:09:00,
2013-03-06 23:11:00,32.0,31.2,30.30,North,11,11.0,14.0,97,0.00,,,0.37,Wunderground v.1.15,2013-03-07 04:11:00,
2013-03-06 23:12:00,32.1,31.3,30.30,NNE,14,11.0,14.0,97,0.00,,,0.37,Wunderground v.1.15,2013-03-07 04:12:00,
2013-03-06 23:14:00,32.1,31.3,30.30,North,355,12.0,14.0,97,0.00,,,0.37,Wunderground v.1.15,2013-03-07 04:14:00,
2013-03-06 23:17:00,32.1,31.3,30.30,North,11,10.0,14.0,97,0.00,,,0.37,Wunderground v.1.15,2013-03-07 04:17:00,
2013-03-06 23:18:00,32.2,31.4,30.30,North,360,12.0,14.0,97,0.00,,,0.37,Wunderground v.1.15,2013-03-07 04:18:00,
2013-03-06 23:19:00,32.2,31.4,30.30,North,360,14.0,14.0,97,0.00,,,0.37,Wunderground v.1.15,2013-03-07 04:19:00,
2013-03-06 23:20:00,32.2,31.2,30.30,North,9,13.0,13.0,96,0.00,,,0.37,Wunderground v.1.15,2013-03-07 04:20:00,
2013-03-06 23:22:00,32.2,31.2,30.30,North,360,15.0,16.0,96,0.00,,,0.37,Wunderground v.1.15,2013-03-07 04:22:00,
2013-03-06 23:23:00,32.3,31.3,30.31,North,360,13.0,16.0,96,0.00,,,0.37,Wunderground v.1.15,2013-03-07 04:23:00,
2013-03-06 23:24:00,32.3,31.3,30.31,North,355,14.0,16.0,96,0.00,,,0.37,Wunderground v.1.15,2013-03-07 04:24:00,
2013-03-06 23:25:00,32.3,31.3,30.31,North,10,14.0,16.0,96,0.00,,,0.37,Wunderground v.1.15,2013-03-07 04:25:00,
2013-03-06 23:27:00,32.3,31.5,30.31,North,355,14.0,16.0,97,0.00,,,0.37,Wunderground v.1.15,2013-03-07 04:27:00,
2013-03-06 23:28:00,32.3,31.5,30.31,North,360,14.0,16.0,97,0.00,,,0.37,Wunderground v.1.15,2013-03-07 04:28:00,
2013-03-06 23:30:00,32.3,31.5,30.31,North,9,14.0,14.0,97,0.00,,,0.37,Wunderground v.1.15,2013-03-07 04:30:00,
2013-03-06 23:32:00,32.3,31.5,30.30,North,9,13.0,17.0,97,0.00,,,0.37,Wunderground v.1.15,2013-03-07 04:32:00,
2013-03-06 23:33:00,32.3,31.5,30.30,North,11,15.0,17.0,97,0.00,,,0.37,Wunderground v.1.15,2013-03-07 04:33:00,
2013-03-06 23:35:00,32.3,31.5,30.30,North,11,13.0,17.0,97,0.00,,,0.37,Wunderground v.1.15,2013-03-07 04:35:00,
2013-03-06 23:37:00,32.3,31.5,30.30,North,360,14.0,17.0,97,0.00,,,0.37,Wunderground v.1.15,2013-03-07 04:37:00,
2013-03-06 23:38:00,32.3,31.5,30.30,North,360,12.0,17.0,97,0.00,,,0.37,Wunderground v.1.15,2013-03-07 04:38:00,
2013-03-06 23:40:00,32.2,31.4,30.30,North,360,12.0,14.0,97,0.00,,,0.37,Wunderground v.1.15,2013-03-07 04:40:00,
2013-03-06 23:41:00,32.2,31.4,30.30,NNE,13,13.0,16.0,97,0.00,,,0.37,Wunderground v.1.15,2013-03-07 04:41:00,
2013-03-06 23:43:00,32.2,31.4,30.30,North,9,11.0,16.0,97,0.00,,,0.37,Wunderground v.1.15,2013-03-07 04:43:00,
2013-03-06 23:46:00,32.1,31.3,30.31,North,9,10.0,16.0,97,0.00,,,0.37,Wunderground v.1.15,2013-03-07 04:46:00,
2013-03-06 23:48:00,32.0,31.2,30.30,NNE,22,6.0,16.0,97,0.00,,,0.37,Wunderground v.1.15,2013-03-07 04:48:00,
2013-03-06 23:51:00,32.0,31.2,30.30,NNE,15,6.0,10.0,97,0.00,,,0.37,Wunderground v.1.15,2013-03-07 04:51:00,
2013-03-06 23:52:00,32.0,31.2,30.30,North,10,6.0,10.0,97,0.00,,,0.37,Wunderground v.1.15,2013-03-07 04:52:00,
2013-03-06 23:53:00,32.0,31.2,30.30,NNE,13,6.0,10.0,97,0.00,,,0.37,Wunderground v.1.15,2013-03-07 04:53:00,
2013-03-06 23:54:00,32.0,31.2,30.30,NNE,12,7.0,10.0,97,0.00,,,0.37,Wunderground v.1.15,2013-03-07 04:54:00,
2013-03-06 23:56:00,32.0,31.2,30.30,North,11,10.0,10.0,97,0.00,,,0.37,Wunderground v.1.15,2013-03-07 04:56:00,
2013-03-06 23:57:00,32.0,31.2,30.30,North,9,7.0,10.0,97,0.00,,,0.37,Wunderground v.1.15,2013-03-07 04:57:00,
2013-03-06 23:58:00,32.0,31.2,30.30,North,9,6.0,10.0,97,0.00,,,0.37,Wunderground v.1.15,2013-03-07 04:58:00,
2013-03-06 23:59:00,32.0,31.2,30.30,North,5,7.0,11.0,97,0.00,,,0.37,Wunderground v.1.15,2013-03-07 04:59:00,